<?xml version="1.0" encoding="UTF-8" standalone="no" ?>
<gpx xmlns="http://www.topografix.com/GPX/1/1" xmlns:xsi="http://www.w3.org/2001/XMLSchema-instance" xsi:schemaLocation="http://www.topografix.com/GPX/1/1 http://www.topografix.com/GPX/1/1/gpx.xsd" version="1.1" creator="VisuGPX - https://www.visugpx.com">
  <metadata>
    <name>141203ROBMinots</name>
    <desc><![CDATA[Bonne sortie pleine d\'embuches!!]]></desc>
  </metadata>
  <trk>
    <name><![CDATA[141203ROBMinots]]></name>
    <trkseg>
      <trkpt lat="43.41693" lon="6.0699">
        <ele>221.78675842285</ele>
        <time>2014-12-03T14:27:38Z</time>
      </trkpt>
      <trkpt lat="43.41693" lon="6.0699">
        <ele>221.78601074219</ele>
        <time>2014-12-03T14:27:45Z</time>
      </trkpt>
      <trkpt lat="43.41693" lon="6.06983">
        <ele>221.89576721191</ele>
        <time>2014-12-03T14:27:54Z</time>
      </trkpt>
      <trkpt lat="43.41691" lon="6.06979">
        <ele>221.91168212891</ele>
        <time>2014-12-03T14:27:55Z</time>
      </trkpt>
      <trkpt lat="43.41684" lon="6.06973">
        <ele>221.80517578125</ele>
        <time>2014-12-03T14:27:57Z</time>
      </trkpt>
      <trkpt lat="43.41674" lon="6.06968">
        <ele>221.57759094238</ele>
        <time>2014-12-03T14:27:59Z</time>
      </trkpt>
      <trkpt lat="43.41662" lon="6.06963">
        <ele>221.31439208984</ele>
        <time>2014-12-03T14:28:01Z</time>
      </trkpt>
      <trkpt lat="43.41614" lon="6.06939">
        <ele>220.01252746582</ele>
        <time>2014-12-03T14:28:09Z</time>
      </trkpt>
      <trkpt lat="43.41601" lon="6.06932">
        <ele>219.59077453613</ele>
        <time>2014-12-03T14:28:11Z</time>
      </trkpt>
      <trkpt lat="43.41579" lon="6.06921">
        <ele>218.94581604004</ele>
        <time>2014-12-03T14:28:14Z</time>
      </trkpt>
      <trkpt lat="43.41571" lon="6.06918">
        <ele>218.85084533691</ele>
        <time>2014-12-03T14:28:15Z</time>
      </trkpt>
      <trkpt lat="43.41547" lon="6.06906">
        <ele>218.61952209473</ele>
        <time>2014-12-03T14:28:18Z</time>
      </trkpt>
      <trkpt lat="43.41516" lon="6.06893">
        <ele>218.42088317871</ele>
        <time>2014-12-03T14:28:22Z</time>
      </trkpt>
      <trkpt lat="43.41492" lon="6.06883">
        <ele>218.34335327148</ele>
        <time>2014-12-03T14:28:26Z</time>
      </trkpt>
      <trkpt lat="43.41482" lon="6.06875">
        <ele>218.39172363281</ele>
        <time>2014-12-03T14:28:29Z</time>
      </trkpt>
      <trkpt lat="43.41475" lon="6.06856">
        <ele>218.64767456055</ele>
        <time>2014-12-03T14:28:33Z</time>
      </trkpt>
      <trkpt lat="43.41477" lon="6.06834">
        <ele>218.98712158203</ele>
        <time>2014-12-03T14:28:36Z</time>
      </trkpt>
      <trkpt lat="43.41478" lon="6.06827">
        <ele>219.01878356934</ele>
        <time>2014-12-03T14:28:37Z</time>
      </trkpt>
      <trkpt lat="43.41481" lon="6.06821">
        <ele>219.03210449219</ele>
        <time>2014-12-03T14:28:38Z</time>
      </trkpt>
      <trkpt lat="43.41484" lon="6.06815">
        <ele>219.0417175293</ele>
        <time>2014-12-03T14:28:39Z</time>
      </trkpt>
      <trkpt lat="43.41489" lon="6.06803">
        <ele>219.0495300293</ele>
        <time>2014-12-03T14:28:41Z</time>
      </trkpt>
      <trkpt lat="43.41497" lon="6.06766">
        <ele>219.03254699707</ele>
        <time>2014-12-03T14:28:47Z</time>
      </trkpt>
      <trkpt lat="43.41499" lon="6.06728">
        <ele>219.00805664062</ele>
        <time>2014-12-03T14:28:53Z</time>
      </trkpt>
      <trkpt lat="43.415" lon="6.06703">
        <ele>219.00109863281</ele>
        <time>2014-12-03T14:28:57Z</time>
      </trkpt>
      <trkpt lat="43.41502" lon="6.06667">
        <ele>219.01942443848</ele>
        <time>2014-12-03T14:29:03Z</time>
      </trkpt>
      <trkpt lat="43.41505" lon="6.06649">
        <ele>219.07933044434</ele>
        <time>2014-12-03T14:29:06Z</time>
      </trkpt>
      <trkpt lat="43.41515" lon="6.06593">
        <ele>219.33782958984</ele>
        <time>2014-12-03T14:29:15Z</time>
      </trkpt>
      <trkpt lat="43.41527" lon="6.0652">
        <ele>220.16154479981</ele>
        <time>2014-12-03T14:29:27Z</time>
      </trkpt>
      <trkpt lat="43.41535" lon="6.06498">
        <ele>220.42935180664</ele>
        <time>2014-12-03T14:29:31Z</time>
      </trkpt>
      <trkpt lat="43.41541" lon="6.06489">
        <ele>220.54946899414</ele>
        <time>2014-12-03T14:29:33Z</time>
      </trkpt>
      <trkpt lat="43.41547" lon="6.0647">
        <ele>220.76844787598</ele>
        <time>2014-12-03T14:29:37Z</time>
      </trkpt>
      <trkpt lat="43.41547" lon="6.06464">
        <ele>220.80976867676</ele>
        <time>2014-12-03T14:29:38Z</time>
      </trkpt>
      <trkpt lat="43.41547" lon="6.06435">
        <ele>221.00506591797</ele>
        <time>2014-12-03T14:29:43Z</time>
      </trkpt>
      <trkpt lat="43.41552" lon="6.0641">
        <ele>221.35293579102</ele>
        <time>2014-12-03T14:29:48Z</time>
      </trkpt>
      <trkpt lat="43.41555" lon="6.06391">
        <ele>221.74015808106</ele>
        <time>2014-12-03T14:29:52Z</time>
      </trkpt>
      <trkpt lat="43.41556" lon="6.06386">
        <ele>221.83532714844</ele>
        <time>2014-12-03T14:29:53Z</time>
      </trkpt>
      <trkpt lat="43.41559" lon="6.06372">
        <ele>222.11053466797</ele>
        <time>2014-12-03T14:29:56Z</time>
      </trkpt>
      <trkpt lat="43.41568" lon="6.06345">
        <ele>222.65083312988</ele>
        <time>2014-12-03T14:30:02Z</time>
      </trkpt>
      <trkpt lat="43.41571" lon="6.06342">
        <ele>222.7336730957</ele>
        <time>2014-12-03T14:30:03Z</time>
      </trkpt>
      <trkpt lat="43.41576" lon="6.06335">
        <ele>222.88786315918</ele>
        <time>2014-12-03T14:30:05Z</time>
      </trkpt>
      <trkpt lat="43.41584" lon="6.06322">
        <ele>223.51075744629</ele>
        <time>2014-12-03T14:30:09Z</time>
      </trkpt>
      <trkpt lat="43.41588" lon="6.06314">
        <ele>224.04895019531</ele>
        <time>2014-12-03T14:30:11Z</time>
      </trkpt>
      <trkpt lat="43.4159" lon="6.06296">
        <ele>224.8141784668</ele>
        <time>2014-12-03T14:30:15Z</time>
      </trkpt>
      <trkpt lat="43.41588" lon="6.06268">
        <ele>225.63761901856</ele>
        <time>2014-12-03T14:30:21Z</time>
      </trkpt>
      <trkpt lat="43.41599" lon="6.06255">
        <ele>226.75529479981</ele>
        <time>2014-12-03T14:30:25Z</time>
      </trkpt>
      <trkpt lat="43.41604" lon="6.06249">
        <ele>227.26312255859</ele>
        <time>2014-12-03T14:30:27Z</time>
      </trkpt>
      <trkpt lat="43.41608" lon="6.06235">
        <ele>227.85134887695</ele>
        <time>2014-12-03T14:30:30Z</time>
      </trkpt>
      <trkpt lat="43.4161" lon="6.0621">
        <ele>228.5700378418</ele>
        <time>2014-12-03T14:30:36Z</time>
      </trkpt>
      <trkpt lat="43.41613" lon="6.06208">
        <ele>228.78747558594</ele>
        <time>2014-12-03T14:30:37Z</time>
      </trkpt>
      <trkpt lat="43.41618" lon="6.0621">
        <ele>229.05068969727</ele>
        <time>2014-12-03T14:30:39Z</time>
      </trkpt>
      <trkpt lat="43.41626" lon="6.06225">
        <ele>229.15711975098</ele>
        <time>2014-12-03T14:30:43Z</time>
      </trkpt>
      <trkpt lat="43.41636" lon="6.06236">
        <ele>229.51188659668</ele>
        <time>2014-12-03T14:30:47Z</time>
      </trkpt>
      <trkpt lat="43.41642" lon="6.06239">
        <ele>229.78082275391</ele>
        <time>2014-12-03T14:30:49Z</time>
      </trkpt>
      <trkpt lat="43.41653" lon="6.06245">
        <ele>230.28092956543</ele>
        <time>2014-12-03T14:30:53Z</time>
      </trkpt>
      <trkpt lat="43.41669" lon="6.0625">
        <ele>231.11822509766</ele>
        <time>2014-12-03T14:30:58Z</time>
      </trkpt>
      <trkpt lat="43.4169" lon="6.06253">
        <ele>232.07450866699</ele>
        <time>2014-12-03T14:31:03Z</time>
      </trkpt>
      <trkpt lat="43.41698" lon="6.06254">
        <ele>232.49615478516</ele>
        <time>2014-12-03T14:31:05Z</time>
      </trkpt>
      <trkpt lat="43.41715" lon="6.06253">
        <ele>233.29585266113</ele>
        <time>2014-12-03T14:31:09Z</time>
      </trkpt>
      <trkpt lat="43.41731" lon="6.06254">
        <ele>234.07084655762</ele>
        <time>2014-12-03T14:31:13Z</time>
      </trkpt>
      <trkpt lat="43.41745" lon="6.06255">
        <ele>234.75622558594</ele>
        <time>2014-12-03T14:31:17Z</time>
      </trkpt>
      <trkpt lat="43.41753" lon="6.06258">
        <ele>235.16259765625</ele>
        <time>2014-12-03T14:31:20Z</time>
      </trkpt>
      <trkpt lat="43.41758" lon="6.06259">
        <ele>235.38232421875</ele>
        <time>2014-12-03T14:31:22Z</time>
      </trkpt>
      <trkpt lat="43.41769" lon="6.06264">
        <ele>235.89501953125</ele>
        <time>2014-12-03T14:31:26Z</time>
      </trkpt>
      <trkpt lat="43.41778" lon="6.06269">
        <ele>236.33447265625</ele>
        <time>2014-12-03T14:31:29Z</time>
      </trkpt>
      <trkpt lat="43.41784" lon="6.06274">
        <ele>236.62744140625</ele>
        <time>2014-12-03T14:31:31Z</time>
      </trkpt>
      <trkpt lat="43.41803" lon="6.0629">
        <ele>237.54296875</ele>
        <time>2014-12-03T14:31:38Z</time>
      </trkpt>
      <trkpt lat="43.41809" lon="6.06293">
        <ele>237.81762695312</ele>
        <time>2014-12-03T14:31:40Z</time>
      </trkpt>
      <trkpt lat="43.41817" lon="6.06295">
        <ele>238.23876953125</ele>
        <time>2014-12-03T14:31:43Z</time>
      </trkpt>
      <trkpt lat="43.41826" lon="6.06296">
        <ele>238.65991210938</ele>
        <time>2014-12-03T14:31:46Z</time>
      </trkpt>
      <trkpt lat="43.41839" lon="6.06296">
        <ele>239.26416015625</ele>
        <time>2014-12-03T14:31:50Z</time>
      </trkpt>
      <trkpt lat="43.41853" lon="6.06295">
        <ele>239.94165039062</ele>
        <time>2014-12-03T14:31:55Z</time>
      </trkpt>
      <trkpt lat="43.41856" lon="6.06295">
        <ele>240.06982421875</ele>
        <time>2014-12-03T14:31:56Z</time>
      </trkpt>
      <trkpt lat="43.41879" lon="6.06297">
        <ele>241.18676757812</ele>
        <time>2014-12-03T14:32:04Z</time>
      </trkpt>
      <trkpt lat="43.41888" lon="6.06298">
        <ele>241.60791015625</ele>
        <time>2014-12-03T14:32:07Z</time>
      </trkpt>
      <trkpt lat="43.41899" lon="6.06298">
        <ele>242.1572265625</ele>
        <time>2014-12-03T14:32:11Z</time>
      </trkpt>
      <trkpt lat="43.41904" lon="6.06298">
        <ele>242.41357421875</ele>
        <time>2014-12-03T14:32:13Z</time>
      </trkpt>
      <trkpt lat="43.41921" lon="6.06296">
        <ele>243.40795898438</ele>
        <time>2014-12-03T14:32:19Z</time>
      </trkpt>
      <trkpt lat="43.41927" lon="6.06295">
        <ele>243.88702392578</ele>
        <time>2014-12-03T14:32:21Z</time>
      </trkpt>
      <trkpt lat="43.41932" lon="6.06293">
        <ele>244.40293884277</ele>
        <time>2014-12-03T14:32:23Z</time>
      </trkpt>
      <trkpt lat="43.41946" lon="6.0629">
        <ele>245.64868164062</ele>
        <time>2014-12-03T14:32:28Z</time>
      </trkpt>
      <trkpt lat="43.41949" lon="6.06289">
        <ele>245.96467590332</ele>
        <time>2014-12-03T14:32:29Z</time>
      </trkpt>
      <trkpt lat="43.41972" lon="6.06282">
        <ele>248.02168273926</ele>
        <time>2014-12-03T14:32:37Z</time>
      </trkpt>
      <trkpt lat="43.41974" lon="6.06281">
        <ele>248.23762512207</ele>
        <time>2014-12-03T14:32:38Z</time>
      </trkpt>
      <trkpt lat="43.41985" lon="6.06278">
        <ele>249.28182983398</ele>
        <time>2014-12-03T14:32:43Z</time>
      </trkpt>
      <trkpt lat="43.41997" lon="6.06274">
        <ele>250.44866943359</ele>
        <time>2014-12-03T14:32:48Z</time>
      </trkpt>
      <trkpt lat="43.42006" lon="6.06271">
        <ele>251.17335510254</ele>
        <time>2014-12-03T14:32:52Z</time>
      </trkpt>
      <trkpt lat="43.42015" lon="6.06269">
        <ele>251.8342590332</ele>
        <time>2014-12-03T14:32:56Z</time>
      </trkpt>
      <trkpt lat="43.42025" lon="6.06265">
        <ele>252.59700012207</ele>
        <time>2014-12-03T14:33:01Z</time>
      </trkpt>
      <trkpt lat="43.42027" lon="6.06263">
        <ele>252.74749755859</ele>
        <time>2014-12-03T14:33:02Z</time>
      </trkpt>
      <trkpt lat="43.42041" lon="6.06259">
        <ele>253.81750488281</ele>
        <time>2014-12-03T14:33:09Z</time>
      </trkpt>
      <trkpt lat="43.4205" lon="6.06256">
        <ele>254.54592895508</ele>
        <time>2014-12-03T14:33:14Z</time>
      </trkpt>
      <trkpt lat="43.42062" lon="6.06251">
        <ele>255.42254638672</ele>
        <time>2014-12-03T14:33:20Z</time>
      </trkpt>
      <trkpt lat="43.42071" lon="6.06247">
        <ele>256.15475463867</ele>
        <time>2014-12-03T14:33:25Z</time>
      </trkpt>
      <trkpt lat="43.4208" lon="6.06244">
        <ele>256.93209838867</ele>
        <time>2014-12-03T14:33:30Z</time>
      </trkpt>
      <trkpt lat="43.42089" lon="6.0624">
        <ele>257.96044921875</ele>
        <time>2014-12-03T14:33:35Z</time>
      </trkpt>
      <trkpt lat="43.42096" lon="6.06238">
        <ele>259.06066894531</ele>
        <time>2014-12-03T14:33:39Z</time>
      </trkpt>
      <trkpt lat="43.421" lon="6.06236">
        <ele>259.62188720703</ele>
        <time>2014-12-03T14:33:41Z</time>
      </trkpt>
      <trkpt lat="43.42112" lon="6.06233">
        <ele>261.28887939453</ele>
        <time>2014-12-03T14:33:47Z</time>
      </trkpt>
      <trkpt lat="43.42115" lon="6.06231">
        <ele>261.85116577148</ele>
        <time>2014-12-03T14:33:49Z</time>
      </trkpt>
      <trkpt lat="43.42123" lon="6.06228">
        <ele>263.05996704102</ele>
        <time>2014-12-03T14:33:53Z</time>
      </trkpt>
      <trkpt lat="43.42133" lon="6.06224">
        <ele>264.58117675781</ele>
        <time>2014-12-03T14:33:58Z</time>
      </trkpt>
      <trkpt lat="43.42138" lon="6.06223">
        <ele>265.22448730469</ele>
        <time>2014-12-03T14:34:00Z</time>
      </trkpt>
      <trkpt lat="43.42149" lon="6.06209">
        <ele>267.42364501953</ele>
        <time>2014-12-03T14:34:07Z</time>
      </trkpt>
      <trkpt lat="43.42145" lon="6.06188">
        <ele>267.74417114258</ele>
        <time>2014-12-03T14:34:13Z</time>
      </trkpt>
      <trkpt lat="43.42137" lon="6.06164">
        <ele>267.4280090332</ele>
        <time>2014-12-03T14:34:18Z</time>
      </trkpt>
      <trkpt lat="43.4213" lon="6.06144">
        <ele>266.97329711914</ele>
        <time>2014-12-03T14:34:21Z</time>
      </trkpt>
      <trkpt lat="43.42126" lon="6.06129">
        <ele>266.79400634766</ele>
        <time>2014-12-03T14:34:23Z</time>
      </trkpt>
      <trkpt lat="43.42118" lon="6.06092">
        <ele>266.65051269531</ele>
        <time>2014-12-03T14:34:29Z</time>
      </trkpt>
      <trkpt lat="43.42116" lon="6.06078">
        <ele>266.77380371094</ele>
        <time>2014-12-03T14:34:32Z</time>
      </trkpt>
      <trkpt lat="43.42115" lon="6.06074">
        <ele>266.85162353516</ele>
        <time>2014-12-03T14:34:33Z</time>
      </trkpt>
      <trkpt lat="43.42113" lon="6.06061">
        <ele>267.06219482422</ele>
        <time>2014-12-03T14:34:36Z</time>
      </trkpt>
      <trkpt lat="43.42112" lon="6.06057">
        <ele>267.15603637695</ele>
        <time>2014-12-03T14:34:37Z</time>
      </trkpt>
      <trkpt lat="43.42106" lon="6.06028">
        <ele>267.45816040039</ele>
        <time>2014-12-03T14:34:44Z</time>
      </trkpt>
      <trkpt lat="43.42105" lon="6.06025">
        <ele>267.53598022461</ele>
        <time>2014-12-03T14:34:45Z</time>
      </trkpt>
      <trkpt lat="43.42104" lon="6.06016">
        <ele>267.65270996094</ele>
        <time>2014-12-03T14:34:47Z</time>
      </trkpt>
      <trkpt lat="43.42102" lon="6.06011">
        <ele>267.67330932617</ele>
        <time>2014-12-03T14:34:48Z</time>
      </trkpt>
      <trkpt lat="43.42096" lon="6.05984">
        <ele>267.96398925781</ele>
        <time>2014-12-03T14:34:53Z</time>
      </trkpt>
      <trkpt lat="43.42095" lon="6.05978">
        <ele>267.98916625977</ele>
        <time>2014-12-03T14:34:54Z</time>
      </trkpt>
      <trkpt lat="43.42076" lon="6.05899">
        <ele>268.01593017578</ele>
        <time>2014-12-03T14:35:06Z</time>
      </trkpt>
      <trkpt lat="43.42072" lon="6.05884">
        <ele>267.49719238281</ele>
        <time>2014-12-03T14:35:08Z</time>
      </trkpt>
      <trkpt lat="43.4206" lon="6.05837">
        <ele>266.24404907227</ele>
        <time>2014-12-03T14:35:14Z</time>
      </trkpt>
      <trkpt lat="43.42058" lon="6.05826">
        <ele>265.55166625977</ele>
        <time>2014-12-03T14:35:15Z</time>
      </trkpt>
      <trkpt lat="43.42056" lon="6.05815">
        <ele>264.66931152344</ele>
        <time>2014-12-03T14:35:16Z</time>
      </trkpt>
      <trkpt lat="43.42049" lon="6.05772">
        <ele>261.55276489258</ele>
        <time>2014-12-03T14:35:20Z</time>
      </trkpt>
      <trkpt lat="43.42033" lon="6.05689">
        <ele>259.29318237305</ele>
        <time>2014-12-03T14:35:28Z</time>
      </trkpt>
      <trkpt lat="43.42029" lon="6.0567">
        <ele>259.06353759766</ele>
        <time>2014-12-03T14:35:30Z</time>
      </trkpt>
      <trkpt lat="43.42023" lon="6.05637">
        <ele>260.21649169922</ele>
        <time>2014-12-03T14:35:34Z</time>
      </trkpt>
      <trkpt lat="43.4202" lon="6.05623">
        <ele>260.68344116211</ele>
        <time>2014-12-03T14:35:36Z</time>
      </trkpt>
      <trkpt lat="43.42017" lon="6.05603">
        <ele>261.22033691406</ele>
        <time>2014-12-03T14:35:39Z</time>
      </trkpt>
      <trkpt lat="43.42014" lon="6.05585">
        <ele>261.60278320312</ele>
        <time>2014-12-03T14:35:42Z</time>
      </trkpt>
      <trkpt lat="43.42012" lon="6.05574">
        <ele>261.84069824219</ele>
        <time>2014-12-03T14:35:44Z</time>
      </trkpt>
      <trkpt lat="43.4201" lon="6.05563">
        <ele>262.11639404297</ele>
        <time>2014-12-03T14:35:46Z</time>
      </trkpt>
      <trkpt lat="43.42007" lon="6.05542">
        <ele>262.57836914062</ele>
        <time>2014-12-03T14:35:50Z</time>
      </trkpt>
      <trkpt lat="43.42004" lon="6.05524">
        <ele>262.87850952148</ele>
        <time>2014-12-03T14:35:54Z</time>
      </trkpt>
      <trkpt lat="43.42002" lon="6.05503">
        <ele>263.20657348633</ele>
        <time>2014-12-03T14:35:59Z</time>
      </trkpt>
      <trkpt lat="43.41993" lon="6.05472">
        <ele>262.92733764648</ele>
        <time>2014-12-03T14:36:07Z</time>
      </trkpt>
      <trkpt lat="43.41983" lon="6.05437">
        <ele>262.56726074219</ele>
        <time>2014-12-03T14:36:13Z</time>
      </trkpt>
      <trkpt lat="43.41977" lon="6.05404">
        <ele>261.93890380859</ele>
        <time>2014-12-03T14:36:17Z</time>
      </trkpt>
      <trkpt lat="43.41974" lon="6.05395">
        <ele>261.49163818359</ele>
        <time>2014-12-03T14:36:18Z</time>
      </trkpt>
      <trkpt lat="43.41969" lon="6.05375">
        <ele>260.70135498047</ele>
        <time>2014-12-03T14:36:20Z</time>
      </trkpt>
      <trkpt lat="43.41962" lon="6.05343">
        <ele>259.82958984375</ele>
        <time>2014-12-03T14:36:23Z</time>
      </trkpt>
      <trkpt lat="43.41961" lon="6.05332">
        <ele>259.62121582031</ele>
        <time>2014-12-03T14:36:24Z</time>
      </trkpt>
      <trkpt lat="43.41958" lon="6.0532">
        <ele>259.39199829102</ele>
        <time>2014-12-03T14:36:25Z</time>
      </trkpt>
      <trkpt lat="43.41953" lon="6.05296">
        <ele>259.03726196289</ele>
        <time>2014-12-03T14:36:27Z</time>
      </trkpt>
      <trkpt lat="43.41949" lon="6.05272">
        <ele>258.80899047852</ele>
        <time>2014-12-03T14:36:29Z</time>
      </trkpt>
      <trkpt lat="43.41946" lon="6.05247">
        <ele>258.75546264648</ele>
        <time>2014-12-03T14:36:31Z</time>
      </trkpt>
      <trkpt lat="43.41944" lon="6.05234">
        <ele>258.91436767578</ele>
        <time>2014-12-03T14:36:32Z</time>
      </trkpt>
      <trkpt lat="43.41941" lon="6.05211">
        <ele>259.2529296875</ele>
        <time>2014-12-03T14:36:34Z</time>
      </trkpt>
      <trkpt lat="43.4194" lon="6.05201">
        <ele>259.40719604492</ele>
        <time>2014-12-03T14:36:35Z</time>
      </trkpt>
      <trkpt lat="43.4194" lon="6.05193">
        <ele>259.55026245117</ele>
        <time>2014-12-03T14:36:36Z</time>
      </trkpt>
      <trkpt lat="43.41939" lon="6.05176">
        <ele>259.83612060547</ele>
        <time>2014-12-03T14:36:38Z</time>
      </trkpt>
      <trkpt lat="43.41938" lon="6.05169">
        <ele>259.96264648438</ele>
        <time>2014-12-03T14:36:39Z</time>
      </trkpt>
      <trkpt lat="43.4194" lon="6.05155">
        <ele>260.45446777344</ele>
        <time>2014-12-03T14:36:41Z</time>
      </trkpt>
      <trkpt lat="43.41943" lon="6.05149">
        <ele>260.70361328125</ele>
        <time>2014-12-03T14:36:42Z</time>
      </trkpt>
      <trkpt lat="43.41948" lon="6.05145">
        <ele>260.90045166016</ele>
        <time>2014-12-03T14:36:43Z</time>
      </trkpt>
      <trkpt lat="43.4196" lon="6.0514">
        <ele>261.3010559082</ele>
        <time>2014-12-03T14:36:46Z</time>
      </trkpt>
      <trkpt lat="43.41964" lon="6.05138">
        <ele>261.46807861328</ele>
        <time>2014-12-03T14:36:47Z</time>
      </trkpt>
      <trkpt lat="43.4198" lon="6.05134">
        <ele>262.00350952148</ele>
        <time>2014-12-03T14:36:52Z</time>
      </trkpt>
      <trkpt lat="43.41996" lon="6.05133">
        <ele>262.37991333008</ele>
        <time>2014-12-03T14:36:57Z</time>
      </trkpt>
      <trkpt lat="43.42004" lon="6.05131">
        <ele>262.63284301758</ele>
        <time>2014-12-03T14:36:59Z</time>
      </trkpt>
      <trkpt lat="43.42019" lon="6.05127">
        <ele>263.2190246582</ele>
        <time>2014-12-03T14:37:03Z</time>
      </trkpt>
      <trkpt lat="43.42027" lon="6.05125">
        <ele>263.45904541016</ele>
        <time>2014-12-03T14:37:05Z</time>
      </trkpt>
      <trkpt lat="43.42044" lon="6.05121">
        <ele>264.08807373047</ele>
        <time>2014-12-03T14:37:10Z</time>
      </trkpt>
      <trkpt lat="43.42064" lon="6.05119">
        <ele>264.66540527344</ele>
        <time>2014-12-03T14:37:16Z</time>
      </trkpt>
      <trkpt lat="43.4207" lon="6.05118">
        <ele>264.85855102539</ele>
        <time>2014-12-03T14:37:18Z</time>
      </trkpt>
      <trkpt lat="43.42086" lon="6.0512">
        <ele>265.27798461914</ele>
        <time>2014-12-03T14:37:23Z</time>
      </trkpt>
      <trkpt lat="43.42106" lon="6.05123">
        <ele>267.34020996094</ele>
        <time>2014-12-03T14:37:29Z</time>
      </trkpt>
      <trkpt lat="43.42115" lon="6.05124">
        <ele>268.33697509766</ele>
        <time>2014-12-03T14:37:32Z</time>
      </trkpt>
      <trkpt lat="43.42117" lon="6.05126">
        <ele>268.51321411133</ele>
        <time>2014-12-03T14:37:33Z</time>
      </trkpt>
      <trkpt lat="43.4213" lon="6.05138">
        <ele>268.94067382812</ele>
        <time>2014-12-03T14:37:38Z</time>
      </trkpt>
      <trkpt lat="43.42149" lon="6.05159">
        <ele>269.48483276367</ele>
        <time>2014-12-03T14:37:46Z</time>
      </trkpt>
      <trkpt lat="43.42155" lon="6.05165">
        <ele>269.71084594727</ele>
        <time>2014-12-03T14:37:48Z</time>
      </trkpt>
      <trkpt lat="43.42171" lon="6.05176">
        <ele>271.98120117188</ele>
        <time>2014-12-03T14:37:53Z</time>
      </trkpt>
      <trkpt lat="43.42193" lon="6.05188">
        <ele>274.74859619141</ele>
        <time>2014-12-03T14:38:00Z</time>
      </trkpt>
      <trkpt lat="43.42196" lon="6.05189">
        <ele>275.07699584961</ele>
        <time>2014-12-03T14:38:01Z</time>
      </trkpt>
      <trkpt lat="43.4221" lon="6.05199">
        <ele>276.77764892578</ele>
        <time>2014-12-03T14:38:07Z</time>
      </trkpt>
      <trkpt lat="43.42218" lon="6.05202">
        <ele>277.55551147461</ele>
        <time>2014-12-03T14:38:10Z</time>
      </trkpt>
      <trkpt lat="43.42226" lon="6.05211">
        <ele>278.35491943359</ele>
        <time>2014-12-03T14:38:14Z</time>
      </trkpt>
      <trkpt lat="43.42237" lon="6.05223">
        <ele>279.32940673828</ele>
        <time>2014-12-03T14:38:20Z</time>
      </trkpt>
      <trkpt lat="43.4225" lon="6.05224">
        <ele>280.32794189453</ele>
        <time>2014-12-03T14:38:25Z</time>
      </trkpt>
      <trkpt lat="43.42265" lon="6.05222">
        <ele>281.01248168945</ele>
        <time>2014-12-03T14:38:31Z</time>
      </trkpt>
      <trkpt lat="43.42281" lon="6.05223">
        <ele>281.63427734375</ele>
        <time>2014-12-03T14:38:36Z</time>
      </trkpt>
      <trkpt lat="43.42284" lon="6.05225">
        <ele>281.66348266602</ele>
        <time>2014-12-03T14:38:37Z</time>
      </trkpt>
      <trkpt lat="43.42312" lon="6.05232">
        <ele>281.95892333984</ele>
        <time>2014-12-03T14:38:48Z</time>
      </trkpt>
      <trkpt lat="43.42315" lon="6.05233">
        <ele>282.01153564453</ele>
        <time>2014-12-03T14:38:49Z</time>
      </trkpt>
      <trkpt lat="43.42324" lon="6.05237">
        <ele>281.68023681641</ele>
        <time>2014-12-03T14:38:53Z</time>
      </trkpt>
      <trkpt lat="43.42326" lon="6.05237">
        <ele>281.71792602539</ele>
        <time>2014-12-03T14:38:54Z</time>
      </trkpt>
      <trkpt lat="43.42333" lon="6.0524">
        <ele>281.4983215332</ele>
        <time>2014-12-03T14:38:58Z</time>
      </trkpt>
      <trkpt lat="43.42337" lon="6.0524">
        <ele>281.61776733398</ele>
        <time>2014-12-03T14:39:00Z</time>
      </trkpt>
      <trkpt lat="43.42343" lon="6.0524">
        <ele>281.71954345703</ele>
        <time>2014-12-03T14:39:03Z</time>
      </trkpt>
      <trkpt lat="43.42347" lon="6.0524">
        <ele>281.88766479492</ele>
        <time>2014-12-03T14:39:05Z</time>
      </trkpt>
      <trkpt lat="43.42363" lon="6.05236">
        <ele>283.22796630859</ele>
        <time>2014-12-03T14:39:13Z</time>
      </trkpt>
      <trkpt lat="43.42365" lon="6.05236">
        <ele>283.37985229492</ele>
        <time>2014-12-03T14:39:14Z</time>
      </trkpt>
      <trkpt lat="43.42375" lon="6.05235">
        <ele>284.04537963867</ele>
        <time>2014-12-03T14:39:19Z</time>
      </trkpt>
      <trkpt lat="43.42385" lon="6.05234">
        <ele>284.58905029297</ele>
        <time>2014-12-03T14:39:24Z</time>
      </trkpt>
      <trkpt lat="43.424" lon="6.05229">
        <ele>286.35028076172</ele>
        <time>2014-12-03T14:39:30Z</time>
      </trkpt>
      <trkpt lat="43.42408" lon="6.05228">
        <ele>287.1240234375</ele>
        <time>2014-12-03T14:39:33Z</time>
      </trkpt>
      <trkpt lat="43.4242" lon="6.05229">
        <ele>287.77978515625</ele>
        <time>2014-12-03T14:39:38Z</time>
      </trkpt>
      <trkpt lat="43.42445" lon="6.05225">
        <ele>292.08551025391</ele>
        <time>2014-12-03T14:39:48Z</time>
      </trkpt>
      <trkpt lat="43.42455" lon="6.05218">
        <ele>294.9362487793</ele>
        <time>2014-12-03T14:39:52Z</time>
      </trkpt>
      <trkpt lat="43.42458" lon="6.05217">
        <ele>295.46038818359</ele>
        <time>2014-12-03T14:39:54Z</time>
      </trkpt>
      <trkpt lat="43.42459" lon="6.05217">
        <ele>295.77041625977</ele>
        <time>2014-12-03T14:39:56Z</time>
      </trkpt>
      <trkpt lat="43.42464" lon="6.05218">
        <ele>296.02569580078</ele>
        <time>2014-12-03T14:39:59Z</time>
      </trkpt>
      <trkpt lat="43.42465" lon="6.05219">
        <ele>296.02478027344</ele>
        <time>2014-12-03T14:40:00Z</time>
      </trkpt>
      <trkpt lat="43.42476" lon="6.0522">
        <ele>297.11672973633</ele>
        <time>2014-12-03T14:40:05Z</time>
      </trkpt>
      <trkpt lat="43.42493" lon="6.05228">
        <ele>297.63729858398</ele>
        <time>2014-12-03T14:40:11Z</time>
      </trkpt>
      <trkpt lat="43.42498" lon="6.05227">
        <ele>298.3742980957</ele>
        <time>2014-12-03T14:40:13Z</time>
      </trkpt>
      <trkpt lat="43.42501" lon="6.05228">
        <ele>298.57629394531</ele>
        <time>2014-12-03T14:40:14Z</time>
      </trkpt>
      <trkpt lat="43.42511" lon="6.0523">
        <ele>298.51519775391</ele>
        <time>2014-12-03T14:40:18Z</time>
      </trkpt>
      <trkpt lat="43.42514" lon="6.0523">
        <ele>298.44573974609</ele>
        <time>2014-12-03T14:40:19Z</time>
      </trkpt>
      <trkpt lat="43.42529" lon="6.0523">
        <ele>299.01538085938</ele>
        <time>2014-12-03T14:40:25Z</time>
      </trkpt>
      <trkpt lat="43.42544" lon="6.05229">
        <ele>299.61660766602</ele>
        <time>2014-12-03T14:40:31Z</time>
      </trkpt>
      <trkpt lat="43.42548" lon="6.05227">
        <ele>299.92327880859</ele>
        <time>2014-12-03T14:40:33Z</time>
      </trkpt>
      <trkpt lat="43.42547" lon="6.05227">
        <ele>299.88244628906</ele>
        <time>2014-12-03T14:40:35Z</time>
      </trkpt>
      <trkpt lat="43.4255" lon="6.05226">
        <ele>300.07608032227</ele>
        <time>2014-12-03T14:40:42Z</time>
      </trkpt>
      <trkpt lat="43.42554" lon="6.05223">
        <ele>300.42990112305</ele>
        <time>2014-12-03T14:40:51Z</time>
      </trkpt>
      <trkpt lat="43.42557" lon="6.05223">
        <ele>300.47210693359</ele>
        <time>2014-12-03T14:40:53Z</time>
      </trkpt>
      <trkpt lat="43.42562" lon="6.05224">
        <ele>300.51361083984</ele>
        <time>2014-12-03T14:40:56Z</time>
      </trkpt>
      <trkpt lat="43.42564" lon="6.05225">
        <ele>300.50833129883</ele>
        <time>2014-12-03T14:40:57Z</time>
      </trkpt>
      <trkpt lat="43.42575" lon="6.0523">
        <ele>300.45843505859</ele>
        <time>2014-12-03T14:41:01Z</time>
      </trkpt>
      <trkpt lat="43.42588" lon="6.0524">
        <ele>300.33117675781</ele>
        <time>2014-12-03T14:41:06Z</time>
      </trkpt>
      <trkpt lat="43.42599" lon="6.05252">
        <ele>300</ele>
        <time>2014-12-03T14:41:11Z</time>
      </trkpt>
      <trkpt lat="43.42606" lon="6.05257">
        <ele>300</ele>
        <time>2014-12-03T14:41:14Z</time>
      </trkpt>
      <trkpt lat="43.42613" lon="6.05264">
        <ele>300</ele>
        <time>2014-12-03T14:41:17Z</time>
      </trkpt>
      <trkpt lat="43.42616" lon="6.05267">
        <ele>300</ele>
        <time>2014-12-03T14:41:19Z</time>
      </trkpt>
      <trkpt lat="43.42617" lon="6.05269">
        <ele>300</ele>
        <time>2014-12-03T14:41:20Z</time>
      </trkpt>
      <trkpt lat="43.42619" lon="6.0527">
        <ele>300</ele>
        <time>2014-12-03T14:41:21Z</time>
      </trkpt>
      <trkpt lat="43.42632" lon="6.05275">
        <ele>300</ele>
        <time>2014-12-03T14:41:27Z</time>
      </trkpt>
      <trkpt lat="43.42636" lon="6.05274">
        <ele>300</ele>
        <time>2014-12-03T14:41:29Z</time>
      </trkpt>
      <trkpt lat="43.42638" lon="6.05272">
        <ele>300</ele>
        <time>2014-12-03T14:41:30Z</time>
      </trkpt>
      <trkpt lat="43.42641" lon="6.05272">
        <ele>300</ele>
        <time>2014-12-03T14:41:31Z</time>
      </trkpt>
      <trkpt lat="43.42648" lon="6.05266">
        <ele>300</ele>
        <time>2014-12-03T14:41:34Z</time>
      </trkpt>
      <trkpt lat="43.42653" lon="6.05261">
        <ele>300</ele>
        <time>2014-12-03T14:41:37Z</time>
      </trkpt>
      <trkpt lat="43.42659" lon="6.05256">
        <ele>300</ele>
        <time>2014-12-03T14:41:40Z</time>
      </trkpt>
      <trkpt lat="43.42664" lon="6.05252">
        <ele>300</ele>
        <time>2014-12-03T14:41:42Z</time>
      </trkpt>
      <trkpt lat="43.42674" lon="6.05244">
        <ele>300.3210144043</ele>
        <time>2014-12-03T14:41:47Z</time>
      </trkpt>
      <trkpt lat="43.42676" lon="6.05242">
        <ele>300.39245605469</ele>
        <time>2014-12-03T14:41:48Z</time>
      </trkpt>
      <trkpt lat="43.42683" lon="6.05236">
        <ele>300.63552856445</ele>
        <time>2014-12-03T14:41:53Z</time>
      </trkpt>
      <trkpt lat="43.42684" lon="6.05236">
        <ele>300.64660644531</ele>
        <time>2014-12-03T14:41:54Z</time>
      </trkpt>
      <trkpt lat="43.42685" lon="6.05235">
        <ele>300.67944335938</ele>
        <time>2014-12-03T14:41:55Z</time>
      </trkpt>
      <trkpt lat="43.42689" lon="6.05234">
        <ele>300.78381347656</ele>
        <time>2014-12-03T14:41:58Z</time>
      </trkpt>
      <trkpt lat="43.42693" lon="6.05234">
        <ele>300.89575195312</ele>
        <time>2014-12-03T14:42:01Z</time>
      </trkpt>
      <trkpt lat="43.42694" lon="6.05234">
        <ele>300.91635131836</ele>
        <time>2014-12-03T14:42:02Z</time>
      </trkpt>
      <trkpt lat="43.42696" lon="6.05232">
        <ele>300.96856689453</ele>
        <time>2014-12-03T14:42:05Z</time>
      </trkpt>
      <trkpt lat="43.42698" lon="6.05231">
        <ele>301.00366210938</ele>
        <time>2014-12-03T14:42:07Z</time>
      </trkpt>
      <trkpt lat="43.42699" lon="6.0523">
        <ele>301.03945922852</ele>
        <time>2014-12-03T14:42:09Z</time>
      </trkpt>
      <trkpt lat="43.42704" lon="6.05224">
        <ele>301.09341430664</ele>
        <time>2014-12-03T14:42:12Z</time>
      </trkpt>
      <trkpt lat="43.42707" lon="6.05221">
        <ele>301.12362670898</ele>
        <time>2014-12-03T14:42:14Z</time>
      </trkpt>
      <trkpt lat="43.4271" lon="6.05218">
        <ele>301.15878295898</ele>
        <time>2014-12-03T14:42:16Z</time>
      </trkpt>
      <trkpt lat="43.42717" lon="6.05211">
        <ele>301.15585327148</ele>
        <time>2014-12-03T14:42:20Z</time>
      </trkpt>
      <trkpt lat="43.42721" lon="6.05206">
        <ele>301.09954833984</ele>
        <time>2014-12-03T14:42:23Z</time>
      </trkpt>
      <trkpt lat="43.42724" lon="6.05198">
        <ele>300.98022460938</ele>
        <time>2014-12-03T14:42:27Z</time>
      </trkpt>
      <trkpt lat="43.42727" lon="6.05196">
        <ele>300.9345703125</ele>
        <time>2014-12-03T14:42:29Z</time>
      </trkpt>
      <trkpt lat="43.42728" lon="6.0519">
        <ele>300.81884765625</ele>
        <time>2014-12-03T14:42:32Z</time>
      </trkpt>
      <trkpt lat="43.42731" lon="6.05181">
        <ele>300.5983581543</ele>
        <time>2014-12-03T14:42:36Z</time>
      </trkpt>
      <trkpt lat="43.42732" lon="6.05179">
        <ele>300.5358581543</ele>
        <time>2014-12-03T14:42:37Z</time>
      </trkpt>
      <trkpt lat="43.42733" lon="6.05169">
        <ele>300.25503540039</ele>
        <time>2014-12-03T14:42:43Z</time>
      </trkpt>
      <trkpt lat="43.42735" lon="6.05168">
        <ele>300.23364257812</ele>
        <time>2014-12-03T14:42:49Z</time>
      </trkpt>
      <trkpt lat="43.42736" lon="6.05166">
        <ele>300.21249389648</ele>
        <time>2014-12-03T14:43:01Z</time>
      </trkpt>
      <trkpt lat="43.42738" lon="6.05161">
        <ele>300.51327514648</ele>
        <time>2014-12-03T14:43:09Z</time>
      </trkpt>
      <trkpt lat="43.42741" lon="6.05156">
        <ele>300.76232910156</ele>
        <time>2014-12-03T14:43:13Z</time>
      </trkpt>
      <trkpt lat="43.42744" lon="6.05152">
        <ele>301.01647949219</ele>
        <time>2014-12-03T14:43:16Z</time>
      </trkpt>
      <trkpt lat="43.42751" lon="6.05142">
        <ele>301.7216796875</ele>
        <time>2014-12-03T14:43:22Z</time>
      </trkpt>
      <trkpt lat="43.42752" lon="6.05139">
        <ele>302.0537109375</ele>
        <time>2014-12-03T14:43:23Z</time>
      </trkpt>
      <trkpt lat="43.42755" lon="6.05129">
        <ele>303.39553833008</ele>
        <time>2014-12-03T14:43:27Z</time>
      </trkpt>
      <trkpt lat="43.42752" lon="6.05116">
        <ele>303.39349365234</ele>
        <time>2014-12-03T14:43:32Z</time>
      </trkpt>
      <trkpt lat="43.42751" lon="6.05111">
        <ele>303.45608520508</ele>
        <time>2014-12-03T14:43:34Z</time>
      </trkpt>
      <trkpt lat="43.42747" lon="6.051">
        <ele>304.12078857422</ele>
        <time>2014-12-03T14:43:38Z</time>
      </trkpt>
      <trkpt lat="43.42747" lon="6.05097">
        <ele>304.28924560547</ele>
        <time>2014-12-03T14:43:39Z</time>
      </trkpt>
      <trkpt lat="43.42748" lon="6.05091">
        <ele>304.63772583008</ele>
        <time>2014-12-03T14:43:41Z</time>
      </trkpt>
      <trkpt lat="43.42749" lon="6.05085">
        <ele>304.9762878418</ele>
        <time>2014-12-03T14:43:43Z</time>
      </trkpt>
      <trkpt lat="43.42752" lon="6.05066">
        <ele>306.85861206055</ele>
        <time>2014-12-03T14:43:49Z</time>
      </trkpt>
      <trkpt lat="43.42754" lon="6.05064">
        <ele>307.24838256836</ele>
        <time>2014-12-03T14:43:50Z</time>
      </trkpt>
      <trkpt lat="43.42761" lon="6.05048">
        <ele>309.70825195312</ele>
        <time>2014-12-03T14:43:56Z</time>
      </trkpt>
      <trkpt lat="43.42763" lon="6.05042">
        <ele>310.43658447266</ele>
        <time>2014-12-03T14:43:58Z</time>
      </trkpt>
      <trkpt lat="43.42767" lon="6.05026">
        <ele>312.19961547852</ele>
        <time>2014-12-03T14:44:03Z</time>
      </trkpt>
      <trkpt lat="43.42768" lon="6.05014">
        <ele>313.18548583984</ele>
        <time>2014-12-03T14:44:07Z</time>
      </trkpt>
      <trkpt lat="43.42766" lon="6.05004">
        <ele>313.66540527344</ele>
        <time>2014-12-03T14:44:10Z</time>
      </trkpt>
      <trkpt lat="43.42764" lon="6.0499">
        <ele>314.24578857422</ele>
        <time>2014-12-03T14:44:14Z</time>
      </trkpt>
      <trkpt lat="43.42763" lon="6.04985">
        <ele>314.43057250977</ele>
        <time>2014-12-03T14:44:16Z</time>
      </trkpt>
      <trkpt lat="43.42763" lon="6.04972">
        <ele>315.10089111328</ele>
        <time>2014-12-03T14:44:20Z</time>
      </trkpt>
      <trkpt lat="43.42762" lon="6.04963">
        <ele>315.59909057617</ele>
        <time>2014-12-03T14:44:23Z</time>
      </trkpt>
      <trkpt lat="43.42763" lon="6.04942">
        <ele>316.77416992188</ele>
        <time>2014-12-03T14:44:30Z</time>
      </trkpt>
      <trkpt lat="43.42759" lon="6.04922">
        <ele>317.54342651367</ele>
        <time>2014-12-03T14:44:38Z</time>
      </trkpt>
      <trkpt lat="43.4276" lon="6.04904">
        <ele>318.44146728516</ele>
        <time>2014-12-03T14:44:45Z</time>
      </trkpt>
      <trkpt lat="43.42767" lon="6.04891">
        <ele>319.58285522461</ele>
        <time>2014-12-03T14:44:51Z</time>
      </trkpt>
      <trkpt lat="43.4277" lon="6.04883">
        <ele>320.27145385742</ele>
        <time>2014-12-03T14:44:55Z</time>
      </trkpt>
      <trkpt lat="43.42772" lon="6.04881">
        <ele>320.45025634766</ele>
        <time>2014-12-03T14:44:56Z</time>
      </trkpt>
      <trkpt lat="43.42776" lon="6.04868">
        <ele>321.45147705078</ele>
        <time>2014-12-03T14:45:02Z</time>
      </trkpt>
      <trkpt lat="43.4278" lon="6.04859">
        <ele>322.15267944336</ele>
        <time>2014-12-03T14:45:07Z</time>
      </trkpt>
      <trkpt lat="43.4278" lon="6.04857">
        <ele>322.23904418945</ele>
        <time>2014-12-03T14:45:08Z</time>
      </trkpt>
      <trkpt lat="43.4278" lon="6.04843">
        <ele>322.88854980469</ele>
        <time>2014-12-03T14:45:14Z</time>
      </trkpt>
      <trkpt lat="43.42782" lon="6.04837">
        <ele>323.33029174805</ele>
        <time>2014-12-03T14:45:17Z</time>
      </trkpt>
      <trkpt lat="43.42785" lon="6.04835">
        <ele>323.73858642578</ele>
        <time>2014-12-03T14:45:19Z</time>
      </trkpt>
      <trkpt lat="43.42786" lon="6.04835">
        <ele>323.84616088867</ele>
        <time>2014-12-03T14:45:20Z</time>
      </trkpt>
      <trkpt lat="43.42794" lon="6.04839">
        <ele>324.50228881836</ele>
        <time>2014-12-03T14:45:24Z</time>
      </trkpt>
      <trkpt lat="43.428" lon="6.04844">
        <ele>324.93774414062</ele>
        <time>2014-12-03T14:45:27Z</time>
      </trkpt>
      <trkpt lat="43.42803" lon="6.04848">
        <ele>325.08343505859</ele>
        <time>2014-12-03T14:45:29Z</time>
      </trkpt>
      <trkpt lat="43.42813" lon="6.04858">
        <ele>325.76434326172</ele>
        <time>2014-12-03T14:45:35Z</time>
      </trkpt>
      <trkpt lat="43.42816" lon="6.04858">
        <ele>325.98403930664</ele>
        <time>2014-12-03T14:45:36Z</time>
      </trkpt>
      <trkpt lat="43.42821" lon="6.04859">
        <ele>326.49337768555</ele>
        <time>2014-12-03T14:45:40Z</time>
      </trkpt>
      <trkpt lat="43.42828" lon="6.04858">
        <ele>327.23657226562</ele>
        <time>2014-12-03T14:45:45Z</time>
      </trkpt>
      <trkpt lat="43.4283" lon="6.04858">
        <ele>327.40716552734</ele>
        <time>2014-12-03T14:45:46Z</time>
      </trkpt>
      <trkpt lat="43.42834" lon="6.04859">
        <ele>327.74649047852</ele>
        <time>2014-12-03T14:45:50Z</time>
      </trkpt>
      <trkpt lat="43.42835" lon="6.0486">
        <ele>327.66369628906</ele>
        <time>2014-12-03T14:45:52Z</time>
      </trkpt>
      <trkpt lat="43.42842" lon="6.04866">
        <ele>327.18618774414</ele>
        <time>2014-12-03T14:45:57Z</time>
      </trkpt>
      <trkpt lat="43.42847" lon="6.04869">
        <ele>326.88793945312</ele>
        <time>2014-12-03T14:46:00Z</time>
      </trkpt>
      <trkpt lat="43.42854" lon="6.04878">
        <ele>326.39916992188</ele>
        <time>2014-12-03T14:46:05Z</time>
      </trkpt>
      <trkpt lat="43.42869" lon="6.04901">
        <ele>325.4206237793</ele>
        <time>2014-12-03T14:46:14Z</time>
      </trkpt>
      <trkpt lat="43.42877" lon="6.04921">
        <ele>324.9533996582</ele>
        <time>2014-12-03T14:46:20Z</time>
      </trkpt>
      <trkpt lat="43.42888" lon="6.0493">
        <ele>324.94100952148</ele>
        <time>2014-12-03T14:46:25Z</time>
      </trkpt>
      <trkpt lat="43.42889" lon="6.04928">
        <ele>324.95938110352</ele>
        <time>2014-12-03T14:46:26Z</time>
      </trkpt>
      <trkpt lat="43.42897" lon="6.04926">
        <ele>325.00448608398</ele>
        <time>2014-12-03T14:46:29Z</time>
      </trkpt>
      <trkpt lat="43.42907" lon="6.04926">
        <ele>325.05780029297</ele>
        <time>2014-12-03T14:46:33Z</time>
      </trkpt>
      <trkpt lat="43.42908" lon="6.04926">
        <ele>325.06842041016</ele>
        <time>2014-12-03T14:46:34Z</time>
      </trkpt>
      <trkpt lat="43.42921" lon="6.04923">
        <ele>324.31588745117</ele>
        <time>2014-12-03T14:46:39Z</time>
      </trkpt>
      <trkpt lat="43.42929" lon="6.04921">
        <ele>322.70407104492</ele>
        <time>2014-12-03T14:46:43Z</time>
      </trkpt>
      <trkpt lat="43.42931" lon="6.04919">
        <ele>322.22946166992</ele>
        <time>2014-12-03T14:46:45Z</time>
      </trkpt>
      <trkpt lat="43.42933" lon="6.04916">
        <ele>321.95550537109</ele>
        <time>2014-12-03T14:46:51Z</time>
      </trkpt>
      <trkpt lat="43.42933" lon="6.04915">
        <ele>321.95529174805</ele>
        <time>2014-12-03T14:46:55Z</time>
      </trkpt>
      <trkpt lat="43.42933" lon="6.04915">
        <ele>321.95516967773</ele>
        <time>2014-12-03T14:46:58Z</time>
      </trkpt>
      <trkpt lat="43.42934" lon="6.04913">
        <ele>321.7297668457</ele>
        <time>2014-12-03T14:47:02Z</time>
      </trkpt>
      <trkpt lat="43.42934" lon="6.04907">
        <ele>321.56826782227</ele>
        <time>2014-12-03T14:47:04Z</time>
      </trkpt>
      <trkpt lat="43.42936" lon="6.0489">
        <ele>321.22497558594</ele>
        <time>2014-12-03T14:47:07Z</time>
      </trkpt>
      <trkpt lat="43.42937" lon="6.04882">
        <ele>321.0524597168</ele>
        <time>2014-12-03T14:47:08Z</time>
      </trkpt>
      <trkpt lat="43.42938" lon="6.04873">
        <ele>320.79995727539</ele>
        <time>2014-12-03T14:47:09Z</time>
      </trkpt>
      <trkpt lat="43.42941" lon="6.04864">
        <ele>320.23760986328</ele>
        <time>2014-12-03T14:47:10Z</time>
      </trkpt>
      <trkpt lat="43.42946" lon="6.04842">
        <ele>319.08200073242</ele>
        <time>2014-12-03T14:47:12Z</time>
      </trkpt>
      <trkpt lat="43.42954" lon="6.04795">
        <ele>318.16976928711</ele>
        <time>2014-12-03T14:47:17Z</time>
      </trkpt>
      <trkpt lat="43.42955" lon="6.04788">
        <ele>318.18807983398</ele>
        <time>2014-12-03T14:47:18Z</time>
      </trkpt>
      <trkpt lat="43.42956" lon="6.04773">
        <ele>318.37484741211</ele>
        <time>2014-12-03T14:47:20Z</time>
      </trkpt>
      <trkpt lat="43.42957" lon="6.04763">
        <ele>318.49203491211</ele>
        <time>2014-12-03T14:47:22Z</time>
      </trkpt>
      <trkpt lat="43.42963" lon="6.04708">
        <ele>318.54571533203</ele>
        <time>2014-12-03T14:47:31Z</time>
      </trkpt>
      <trkpt lat="43.42966" lon="6.0468">
        <ele>318.68322753906</ele>
        <time>2014-12-03T14:47:35Z</time>
      </trkpt>
      <trkpt lat="43.42966" lon="6.04666">
        <ele>318.85162353516</ele>
        <time>2014-12-03T14:47:37Z</time>
      </trkpt>
      <trkpt lat="43.42968" lon="6.04659">
        <ele>318.76712036133</ele>
        <time>2014-12-03T14:47:38Z</time>
      </trkpt>
      <trkpt lat="43.42971" lon="6.04632">
        <ele>318.86737060547</ele>
        <time>2014-12-03T14:47:42Z</time>
      </trkpt>
      <trkpt lat="43.42978" lon="6.04576">
        <ele>319.03033447266</ele>
        <time>2014-12-03T14:47:50Z</time>
      </trkpt>
      <trkpt lat="43.4298" lon="6.04557">
        <ele>319.24206542969</ele>
        <time>2014-12-03T14:47:53Z</time>
      </trkpt>
      <trkpt lat="43.42979" lon="6.04543">
        <ele>319.67578125</ele>
        <time>2014-12-03T14:47:55Z</time>
      </trkpt>
      <trkpt lat="43.4298" lon="6.04538">
        <ele>319.75701904297</ele>
        <time>2014-12-03T14:47:56Z</time>
      </trkpt>
      <trkpt lat="43.42979" lon="6.04526">
        <ele>320.09005737305</ele>
        <time>2014-12-03T14:47:59Z</time>
      </trkpt>
      <trkpt lat="43.42978" lon="6.04515">
        <ele>320.51007080078</ele>
        <time>2014-12-03T14:48:04Z</time>
      </trkpt>
      <trkpt lat="43.42978" lon="6.04511">
        <ele>320.65423583984</ele>
        <time>2014-12-03T14:48:06Z</time>
      </trkpt>
      <trkpt lat="43.42978" lon="6.04504">
        <ele>320.80874633789</ele>
        <time>2014-12-03T14:48:09Z</time>
      </trkpt>
      <trkpt lat="43.42979" lon="6.04497">
        <ele>320.94219970703</ele>
        <time>2014-12-03T14:48:13Z</time>
      </trkpt>
      <trkpt lat="43.4298" lon="6.04486">
        <ele>321.20431518555</ele>
        <time>2014-12-03T14:48:18Z</time>
      </trkpt>
      <trkpt lat="43.42981" lon="6.04478">
        <ele>321.33004760742</ele>
        <time>2014-12-03T14:48:22Z</time>
      </trkpt>
      <trkpt lat="43.42983" lon="6.0447">
        <ele>321.37619018555</ele>
        <time>2014-12-03T14:48:26Z</time>
      </trkpt>
      <trkpt lat="43.42985" lon="6.04466">
        <ele>321.3046875</ele>
        <time>2014-12-03T14:48:28Z</time>
      </trkpt>
      <trkpt lat="43.42986" lon="6.04463">
        <ele>321.27499389648</ele>
        <time>2014-12-03T14:48:30Z</time>
      </trkpt>
      <trkpt lat="43.42987" lon="6.04458">
        <ele>321.28387451172</ele>
        <time>2014-12-03T14:48:36Z</time>
      </trkpt>
      <trkpt lat="43.42987" lon="6.04459">
        <ele>321.21862792969</ele>
        <time>2014-12-03T14:48:46Z</time>
      </trkpt>
      <trkpt lat="43.42987" lon="6.04458">
        <ele>321.22943115234</ele>
        <time>2014-12-03T14:48:47Z</time>
      </trkpt>
      <trkpt lat="43.42987" lon="6.04458">
        <ele>321.22943115234</ele>
        <time>2014-12-03T14:48:49Z</time>
      </trkpt>
      <trkpt lat="43.42988" lon="6.04458">
        <ele>321.20379638672</ele>
        <time>2014-12-03T14:48:54Z</time>
      </trkpt>
      <trkpt lat="43.42987" lon="6.04458">
        <ele>321.26370239258</ele>
        <time>2014-12-03T14:48:56Z</time>
      </trkpt>
      <trkpt lat="43.4299" lon="6.04451">
        <ele>321.14651489258</ele>
        <time>2014-12-03T14:49:04Z</time>
      </trkpt>
      <trkpt lat="43.42994" lon="6.04435">
        <ele>321.21377563477</ele>
        <time>2014-12-03T14:49:11Z</time>
      </trkpt>
      <trkpt lat="43.42994" lon="6.04418">
        <ele>321.7883605957</ele>
        <time>2014-12-03T14:49:18Z</time>
      </trkpt>
      <trkpt lat="43.42997" lon="6.04401">
        <ele>322.38189697266</ele>
        <time>2014-12-03T14:49:25Z</time>
      </trkpt>
      <trkpt lat="43.43002" lon="6.04377">
        <ele>323.27676391602</ele>
        <time>2014-12-03T14:49:30Z</time>
      </trkpt>
      <trkpt lat="43.43003" lon="6.04365">
        <ele>323.87957763672</ele>
        <time>2014-12-03T14:49:32Z</time>
      </trkpt>
      <trkpt lat="43.43005" lon="6.04331">
        <ele>325.71136474609</ele>
        <time>2014-12-03T14:49:37Z</time>
      </trkpt>
      <trkpt lat="43.43009" lon="6.04304">
        <ele>327.22503662109</ele>
        <time>2014-12-03T14:49:42Z</time>
      </trkpt>
      <trkpt lat="43.43013" lon="6.04266">
        <ele>329.22790527344</ele>
        <time>2014-12-03T14:49:50Z</time>
      </trkpt>
      <trkpt lat="43.43024" lon="6.04222">
        <ele>329.96954345703</ele>
        <time>2014-12-03T14:49:59Z</time>
      </trkpt>
      <trkpt lat="43.43034" lon="6.0418">
        <ele>330.42340087891</ele>
        <time>2014-12-03T14:50:08Z</time>
      </trkpt>
      <trkpt lat="43.4304" lon="6.04146">
        <ele>330.99319458008</ele>
        <time>2014-12-03T14:50:15Z</time>
      </trkpt>
      <trkpt lat="43.43047" lon="6.04113">
        <ele>331.25012207031</ele>
        <time>2014-12-03T14:50:23Z</time>
      </trkpt>
      <trkpt lat="43.43049" lon="6.04108">
        <ele>331.24554443359</ele>
        <time>2014-12-03T14:50:26Z</time>
      </trkpt>
      <trkpt lat="43.43049" lon="6.04105">
        <ele>331.31820678711</ele>
        <time>2014-12-03T14:50:28Z</time>
      </trkpt>
      <trkpt lat="43.43052" lon="6.04089">
        <ele>331.51159667969</ele>
        <time>2014-12-03T14:50:34Z</time>
      </trkpt>
      <trkpt lat="43.43054" lon="6.0408">
        <ele>331.62014770508</ele>
        <time>2014-12-03T14:50:36Z</time>
      </trkpt>
      <trkpt lat="43.43057" lon="6.04066">
        <ele>331.6266784668</ele>
        <time>2014-12-03T14:50:39Z</time>
      </trkpt>
      <trkpt lat="43.43066" lon="6.04038">
        <ele>331.44226074219</ele>
        <time>2014-12-03T14:50:45Z</time>
      </trkpt>
      <trkpt lat="43.4307" lon="6.04024">
        <ele>331.48297119141</ele>
        <time>2014-12-03T14:50:50Z</time>
      </trkpt>
      <trkpt lat="43.4307" lon="6.04024">
        <ele>331.51916503906</ele>
        <time>2014-12-03T14:50:54Z</time>
      </trkpt>
      <trkpt lat="43.4307" lon="6.04025">
        <ele>331.49618530273</ele>
        <time>2014-12-03T14:51:00Z</time>
      </trkpt>
      <trkpt lat="43.4307" lon="6.04025">
        <ele>331.49926757812</ele>
        <time>2014-12-03T14:51:02Z</time>
      </trkpt>
      <trkpt lat="43.4307" lon="6.04025">
        <ele>331.46450805664</ele>
        <time>2014-12-03T14:51:03Z</time>
      </trkpt>
      <trkpt lat="43.4307" lon="6.04024">
        <ele>331.47219848633</ele>
        <time>2014-12-03T14:51:07Z</time>
      </trkpt>
      <trkpt lat="43.4307" lon="6.04024">
        <ele>331.47528076172</ele>
        <time>2014-12-03T14:51:15Z</time>
      </trkpt>
      <trkpt lat="43.4307" lon="6.04025">
        <ele>331.46298217773</ele>
        <time>2014-12-03T14:51:21Z</time>
      </trkpt>
      <trkpt lat="43.4307" lon="6.04024">
        <ele>331.47067260742</ele>
        <time>2014-12-03T14:51:26Z</time>
      </trkpt>
      <trkpt lat="43.4307" lon="6.04024">
        <ele>331.52374267578</ele>
        <time>2014-12-03T14:51:32Z</time>
      </trkpt>
      <trkpt lat="43.4307" lon="6.04024">
        <ele>331.48449707031</ele>
        <time>2014-12-03T14:51:34Z</time>
      </trkpt>
      <trkpt lat="43.43071" lon="6.04024">
        <ele>331.45449829102</ele>
        <time>2014-12-03T14:51:40Z</time>
      </trkpt>
      <trkpt lat="43.4307" lon="6.04024">
        <ele>331.49371337891</ele>
        <time>2014-12-03T14:51:44Z</time>
      </trkpt>
      <trkpt lat="43.4307" lon="6.04024">
        <ele>331.4967956543</ele>
        <time>2014-12-03T14:51:52Z</time>
      </trkpt>
      <trkpt lat="43.43071" lon="6.04024">
        <ele>331.45758056641</ele>
        <time>2014-12-03T14:51:56Z</time>
      </trkpt>
      <trkpt lat="43.4307" lon="6.04025">
        <ele>331.46606445312</ele>
        <time>2014-12-03T14:52:10Z</time>
      </trkpt>
      <trkpt lat="43.43069" lon="6.04027">
        <ele>331.46078491211</ele>
        <time>2014-12-03T14:52:13Z</time>
      </trkpt>
      <trkpt lat="43.43067" lon="6.04033">
        <ele>331.5026550293</ele>
        <time>2014-12-03T14:52:16Z</time>
      </trkpt>
      <trkpt lat="43.4306" lon="6.04059">
        <ele>331.52471923828</ele>
        <time>2014-12-03T14:52:24Z</time>
      </trkpt>
      <trkpt lat="43.43052" lon="6.0407">
        <ele>332.18731689453</ele>
        <time>2014-12-03T14:52:29Z</time>
      </trkpt>
      <trkpt lat="43.43048" lon="6.04075">
        <ele>332.49978637695</ele>
        <time>2014-12-03T14:52:32Z</time>
      </trkpt>
      <trkpt lat="43.43046" lon="6.0408">
        <ele>332.59170532227</ele>
        <time>2014-12-03T14:52:34Z</time>
      </trkpt>
      <trkpt lat="43.43045" lon="6.04083">
        <ele>332.63827514648</ele>
        <time>2014-12-03T14:52:35Z</time>
      </trkpt>
      <trkpt lat="43.4304" lon="6.041">
        <ele>332.53414916992</ele>
        <time>2014-12-03T14:52:41Z</time>
      </trkpt>
      <trkpt lat="43.43033" lon="6.04112">
        <ele>333.01879882812</ele>
        <time>2014-12-03T14:52:48Z</time>
      </trkpt>
      <trkpt lat="43.43029" lon="6.04115">
        <ele>333.33807373047</ele>
        <time>2014-12-03T14:52:51Z</time>
      </trkpt>
      <trkpt lat="43.43025" lon="6.04118">
        <ele>333.77239990234</ele>
        <time>2014-12-03T14:52:55Z</time>
      </trkpt>
      <trkpt lat="43.43021" lon="6.04119">
        <ele>334.13973999023</ele>
        <time>2014-12-03T14:52:58Z</time>
      </trkpt>
      <trkpt lat="43.43016" lon="6.04122">
        <ele>334.65072631836</ele>
        <time>2014-12-03T14:53:02Z</time>
      </trkpt>
      <trkpt lat="43.43015" lon="6.04122">
        <ele>334.78118896484</ele>
        <time>2014-12-03T14:53:03Z</time>
      </trkpt>
      <trkpt lat="43.43015" lon="6.04122">
        <ele>334.86071777344</ele>
        <time>2014-12-03T14:53:04Z</time>
      </trkpt>
      <trkpt lat="43.43008" lon="6.04125">
        <ele>335.51876831055</ele>
        <time>2014-12-03T14:53:10Z</time>
      </trkpt>
      <trkpt lat="43.43007" lon="6.04126">
        <ele>335.67611694336</ele>
        <time>2014-12-03T14:53:12Z</time>
      </trkpt>
      <trkpt lat="43.43007" lon="6.04127">
        <ele>335.65893554688</ele>
        <time>2014-12-03T14:53:18Z</time>
      </trkpt>
      <trkpt lat="43.43005" lon="6.04126">
        <ele>335.89471435547</ele>
        <time>2014-12-03T14:53:27Z</time>
      </trkpt>
      <trkpt lat="43.43005" lon="6.04127">
        <ele>335.88610839844</ele>
        <time>2014-12-03T14:53:29Z</time>
      </trkpt>
      <trkpt lat="43.43002" lon="6.04128">
        <ele>336.16021728516</ele>
        <time>2014-12-03T14:53:34Z</time>
      </trkpt>
      <trkpt lat="43.43" lon="6.04129">
        <ele>336.29867553711</ele>
        <time>2014-12-03T14:53:37Z</time>
      </trkpt>
      <trkpt lat="43.42995" lon="6.04132">
        <ele>337.25582885742</ele>
        <time>2014-12-03T14:53:45Z</time>
      </trkpt>
      <trkpt lat="43.42993" lon="6.04134">
        <ele>337.80307006836</ele>
        <time>2014-12-03T14:53:48Z</time>
      </trkpt>
      <trkpt lat="43.4299" lon="6.04135">
        <ele>338.33981323242</ele>
        <time>2014-12-03T14:53:52Z</time>
      </trkpt>
      <trkpt lat="43.42988" lon="6.04136">
        <ele>338.82354736328</ele>
        <time>2014-12-03T14:53:58Z</time>
      </trkpt>
      <trkpt lat="43.42986" lon="6.04137">
        <ele>339.22897338867</ele>
        <time>2014-12-03T14:54:05Z</time>
      </trkpt>
      <trkpt lat="43.42984" lon="6.04138">
        <ele>339.61544799805</ele>
        <time>2014-12-03T14:54:08Z</time>
      </trkpt>
      <trkpt lat="43.42984" lon="6.04138">
        <ele>339.68798828125</ele>
        <time>2014-12-03T14:54:10Z</time>
      </trkpt>
      <trkpt lat="43.42983" lon="6.04139">
        <ele>339.83483886719</ele>
        <time>2014-12-03T14:54:19Z</time>
      </trkpt>
      <trkpt lat="43.42979" lon="6.04141">
        <ele>340.61389160156</ele>
        <time>2014-12-03T14:54:29Z</time>
      </trkpt>
      <trkpt lat="43.42979" lon="6.04141">
        <ele>340.69476318359</ele>
        <time>2014-12-03T14:54:35Z</time>
      </trkpt>
      <trkpt lat="43.42979" lon="6.04141">
        <ele>340.69476318359</ele>
        <time>2014-12-03T14:54:37Z</time>
      </trkpt>
      <trkpt lat="43.42975" lon="6.04143">
        <ele>341.41094970703</ele>
        <time>2014-12-03T14:54:45Z</time>
      </trkpt>
      <trkpt lat="43.42974" lon="6.04143">
        <ele>341.75518798828</ele>
        <time>2014-12-03T14:54:48Z</time>
      </trkpt>
      <trkpt lat="43.42973" lon="6.04143">
        <ele>341.91430664062</ele>
        <time>2014-12-03T14:54:51Z</time>
      </trkpt>
      <trkpt lat="43.42971" lon="6.04145">
        <ele>342.38153076172</ele>
        <time>2014-12-03T14:54:58Z</time>
      </trkpt>
      <trkpt lat="43.4297" lon="6.04146">
        <ele>342.51080322266</ele>
        <time>2014-12-03T14:55:03Z</time>
      </trkpt>
      <trkpt lat="43.42969" lon="6.04148">
        <ele>342.7278137207</ele>
        <time>2014-12-03T14:55:06Z</time>
      </trkpt>
      <trkpt lat="43.42967" lon="6.04149">
        <ele>343.02081298828</ele>
        <time>2014-12-03T14:55:11Z</time>
      </trkpt>
      <trkpt lat="43.42966" lon="6.04151">
        <ele>343.32189941406</ele>
        <time>2014-12-03T14:55:17Z</time>
      </trkpt>
      <trkpt lat="43.42965" lon="6.04151">
        <ele>343.39172363281</ele>
        <time>2014-12-03T14:55:18Z</time>
      </trkpt>
      <trkpt lat="43.42962" lon="6.04152">
        <ele>344.05297851562</ele>
        <time>2014-12-03T14:55:22Z</time>
      </trkpt>
      <trkpt lat="43.42959" lon="6.04155">
        <ele>344.74816894531</ele>
        <time>2014-12-03T14:55:27Z</time>
      </trkpt>
      <trkpt lat="43.42955" lon="6.04156">
        <ele>345.4700012207</ele>
        <time>2014-12-03T14:55:34Z</time>
      </trkpt>
      <trkpt lat="43.42954" lon="6.04159">
        <ele>345.7428894043</ele>
        <time>2014-12-03T14:55:38Z</time>
      </trkpt>
      <trkpt lat="43.4295" lon="6.04161">
        <ele>346.45440673828</ele>
        <time>2014-12-03T14:55:41Z</time>
      </trkpt>
      <trkpt lat="43.42944" lon="6.04168">
        <ele>347.63510131836</ele>
        <time>2014-12-03T14:55:46Z</time>
      </trkpt>
      <trkpt lat="43.42942" lon="6.04171">
        <ele>347.96975708008</ele>
        <time>2014-12-03T14:55:48Z</time>
      </trkpt>
      <trkpt lat="43.42938" lon="6.04175">
        <ele>348.54898071289</ele>
        <time>2014-12-03T14:55:51Z</time>
      </trkpt>
      <trkpt lat="43.42928" lon="6.0418">
        <ele>350.54248046875</ele>
        <time>2014-12-03T14:55:57Z</time>
      </trkpt>
      <trkpt lat="43.42927" lon="6.0418">
        <ele>350.8000793457</ele>
        <time>2014-12-03T14:55:58Z</time>
      </trkpt>
      <trkpt lat="43.42927" lon="6.04181">
        <ele>350.74203491211</ele>
        <time>2014-12-03T14:56:00Z</time>
      </trkpt>
      <trkpt lat="43.42926" lon="6.04181">
        <ele>350.80407714844</ele>
        <time>2014-12-03T14:56:02Z</time>
      </trkpt>
      <trkpt lat="43.42924" lon="6.04179">
        <ele>351.51138305664</ele>
        <time>2014-12-03T14:56:05Z</time>
      </trkpt>
      <trkpt lat="43.42921" lon="6.04178">
        <ele>352.27081298828</ele>
        <time>2014-12-03T14:56:10Z</time>
      </trkpt>
      <trkpt lat="43.42921" lon="6.04178">
        <ele>352.27081298828</ele>
        <time>2014-12-03T14:56:12Z</time>
      </trkpt>
      <trkpt lat="43.42919" lon="6.04179">
        <ele>352.66903686523</ele>
        <time>2014-12-03T14:56:16Z</time>
      </trkpt>
      <trkpt lat="43.42918" lon="6.04179">
        <ele>352.7336730957</ele>
        <time>2014-12-03T14:56:18Z</time>
      </trkpt>
      <trkpt lat="43.42916" lon="6.04179">
        <ele>353.12908935547</ele>
        <time>2014-12-03T14:56:22Z</time>
      </trkpt>
      <trkpt lat="43.42915" lon="6.04179">
        <ele>353.32412719727</ele>
        <time>2014-12-03T14:56:23Z</time>
      </trkpt>
      <trkpt lat="43.42913" lon="6.0418">
        <ele>353.65390014648</ele>
        <time>2014-12-03T14:56:27Z</time>
      </trkpt>
      <trkpt lat="43.42912" lon="6.0418">
        <ele>353.7731628418</ele>
        <time>2014-12-03T14:56:29Z</time>
      </trkpt>
      <trkpt lat="43.42907" lon="6.04182">
        <ele>354.53521728516</ele>
        <time>2014-12-03T14:56:36Z</time>
      </trkpt>
      <trkpt lat="43.42907" lon="6.04182">
        <ele>354.59533691406</ele>
        <time>2014-12-03T14:56:37Z</time>
      </trkpt>
      <trkpt lat="43.42902" lon="6.04183">
        <ele>355.37982177734</ele>
        <time>2014-12-03T14:56:46Z</time>
      </trkpt>
      <trkpt lat="43.42899" lon="6.04183">
        <ele>355.92044067383</ele>
        <time>2014-12-03T14:56:51Z</time>
      </trkpt>
      <trkpt lat="43.42895" lon="6.04184">
        <ele>356.62536621094</ele>
        <time>2014-12-03T14:56:58Z</time>
      </trkpt>
      <trkpt lat="43.42889" lon="6.04184">
        <ele>357.57406616211</ele>
        <time>2014-12-03T14:57:08Z</time>
      </trkpt>
      <trkpt lat="43.42885" lon="6.04185">
        <ele>358.22479248047</ele>
        <time>2014-12-03T14:57:14Z</time>
      </trkpt>
      <trkpt lat="43.4288" lon="6.04186">
        <ele>359.00827026367</ele>
        <time>2014-12-03T14:57:23Z</time>
      </trkpt>
      <trkpt lat="43.42875" lon="6.04188">
        <ele>359.85580444336</ele>
        <time>2014-12-03T14:57:32Z</time>
      </trkpt>
      <trkpt lat="43.42867" lon="6.0419">
        <ele>361.13830566406</ele>
        <time>2014-12-03T14:57:42Z</time>
      </trkpt>
      <trkpt lat="43.42865" lon="6.0419">
        <ele>361.51226806641</ele>
        <time>2014-12-03T14:57:45Z</time>
      </trkpt>
      <trkpt lat="43.42865" lon="6.0419">
        <ele>361.43957519531</ele>
        <time>2014-12-03T14:57:50Z</time>
      </trkpt>
      <trkpt lat="43.42865" lon="6.0419">
        <ele>361.43957519531</ele>
        <time>2014-12-03T14:58:18Z</time>
      </trkpt>
      <trkpt lat="43.42865" lon="6.0419">
        <ele>361.43719482422</ele>
        <time>2014-12-03T14:58:33Z</time>
      </trkpt>
      <trkpt lat="43.42864" lon="6.04191">
        <ele>361.67163085938</ele>
        <time>2014-12-03T14:59:03Z</time>
      </trkpt>
      <trkpt lat="43.42856" lon="6.04194">
        <ele>362.99084472656</ele>
        <time>2014-12-03T14:59:15Z</time>
      </trkpt>
      <trkpt lat="43.42852" lon="6.04196">
        <ele>363.65032958984</ele>
        <time>2014-12-03T14:59:17Z</time>
      </trkpt>
      <trkpt lat="43.42843" lon="6.04199">
        <ele>365.10424804688</ele>
        <time>2014-12-03T14:59:22Z</time>
      </trkpt>
      <trkpt lat="43.42836" lon="6.04202">
        <ele>366.15600585938</ele>
        <time>2014-12-03T14:59:26Z</time>
      </trkpt>
      <trkpt lat="43.42834" lon="6.04203">
        <ele>366.6164855957</ele>
        <time>2014-12-03T14:59:28Z</time>
      </trkpt>
      <trkpt lat="43.42832" lon="6.04204">
        <ele>366.68194580078</ele>
        <time>2014-12-03T14:59:29Z</time>
      </trkpt>
      <trkpt lat="43.42826" lon="6.04206">
        <ele>366.69873046875</ele>
        <time>2014-12-03T14:59:33Z</time>
      </trkpt>
      <trkpt lat="43.42818" lon="6.0421">
        <ele>366.72344970703</ele>
        <time>2014-12-03T14:59:38Z</time>
      </trkpt>
      <trkpt lat="43.42816" lon="6.04211">
        <ele>366.75708007812</ele>
        <time>2014-12-03T14:59:40Z</time>
      </trkpt>
      <trkpt lat="43.4281" lon="6.04215">
        <ele>366.79931640625</ele>
        <time>2014-12-03T14:59:45Z</time>
      </trkpt>
      <trkpt lat="43.42803" lon="6.0422">
        <ele>366.87966918945</ele>
        <time>2014-12-03T14:59:50Z</time>
      </trkpt>
      <trkpt lat="43.42801" lon="6.04221">
        <ele>366.91055297852</ele>
        <time>2014-12-03T14:59:51Z</time>
      </trkpt>
      <trkpt lat="43.42797" lon="6.04223">
        <ele>367.00323486328</ele>
        <time>2014-12-03T14:59:54Z</time>
      </trkpt>
      <trkpt lat="43.42793" lon="6.04225">
        <ele>367.10473632812</ele>
        <time>2014-12-03T14:59:57Z</time>
      </trkpt>
      <trkpt lat="43.42785" lon="6.04227">
        <ele>367.36361694336</ele>
        <time>2014-12-03T15:00:03Z</time>
      </trkpt>
      <trkpt lat="43.42777" lon="6.04229">
        <ele>367.61303710938</ele>
        <time>2014-12-03T15:00:09Z</time>
      </trkpt>
      <trkpt lat="43.42775" lon="6.0423">
        <ele>367.69689941406</ele>
        <time>2014-12-03T15:00:11Z</time>
      </trkpt>
      <trkpt lat="43.42768" lon="6.04234">
        <ele>367.96469116211</ele>
        <time>2014-12-03T15:00:17Z</time>
      </trkpt>
      <trkpt lat="43.42762" lon="6.04236">
        <ele>368.22714233398</ele>
        <time>2014-12-03T15:00:22Z</time>
      </trkpt>
      <trkpt lat="43.42758" lon="6.04238">
        <ele>368.40747070312</ele>
        <time>2014-12-03T15:00:25Z</time>
      </trkpt>
      <trkpt lat="43.42752" lon="6.04241">
        <ele>368.69009399414</ele>
        <time>2014-12-03T15:00:32Z</time>
      </trkpt>
      <trkpt lat="43.42752" lon="6.04241">
        <ele>368.67327880859</ele>
        <time>2014-12-03T15:00:37Z</time>
      </trkpt>
      <trkpt lat="43.42752" lon="6.04241">
        <ele>368.67224121094</ele>
        <time>2014-12-03T15:00:45Z</time>
      </trkpt>
      <trkpt lat="43.42752" lon="6.0424">
        <ele>368.67010498047</ele>
        <time>2014-12-03T15:01:07Z</time>
      </trkpt>
      <trkpt lat="43.42752" lon="6.0424">
        <ele>368.66903686523</ele>
        <time>2014-12-03T15:01:12Z</time>
      </trkpt>
      <trkpt lat="43.42752" lon="6.0424">
        <ele>368.67010498047</ele>
        <time>2014-12-03T15:01:16Z</time>
      </trkpt>
      <trkpt lat="43.42752" lon="6.0424">
        <ele>368.68579101562</ele>
        <time>2014-12-03T15:01:19Z</time>
      </trkpt>
      <trkpt lat="43.42752" lon="6.0424">
        <ele>368.68579101562</ele>
        <time>2014-12-03T15:01:22Z</time>
      </trkpt>
      <trkpt lat="43.42752" lon="6.04241">
        <ele>368.69223022461</ele>
        <time>2014-12-03T15:02:03Z</time>
      </trkpt>
      <trkpt lat="43.42752" lon="6.04241">
        <ele>368.67541503906</ele>
        <time>2014-12-03T15:02:46Z</time>
      </trkpt>
      <trkpt lat="43.42752" lon="6.04241">
        <ele>368.69009399414</ele>
        <time>2014-12-03T15:03:10Z</time>
      </trkpt>
      <trkpt lat="43.42752" lon="6.04241">
        <ele>368.69009399414</ele>
        <time>2014-12-03T15:03:20Z</time>
      </trkpt>
      <trkpt lat="43.42752" lon="6.04241">
        <ele>368.71017456055</ele>
        <time>2014-12-03T15:03:28Z</time>
      </trkpt>
      <trkpt lat="43.4275" lon="6.0424">
        <ele>368.76425170898</ele>
        <time>2014-12-03T15:03:40Z</time>
      </trkpt>
      <trkpt lat="43.42749" lon="6.0424">
        <ele>368.5758972168</ele>
        <time>2014-12-03T15:03:50Z</time>
      </trkpt>
      <trkpt lat="43.42747" lon="6.04239">
        <ele>368.40121459961</ele>
        <time>2014-12-03T15:03:57Z</time>
      </trkpt>
      <trkpt lat="43.42745" lon="6.04236">
        <ele>367.97857666016</ele>
        <time>2014-12-03T15:04:03Z</time>
      </trkpt>
      <trkpt lat="43.42743" lon="6.04233">
        <ele>367.68035888672</ele>
        <time>2014-12-03T15:04:10Z</time>
      </trkpt>
      <trkpt lat="43.42743" lon="6.04233">
        <ele>367.67694091797</ele>
        <time>2014-12-03T15:04:22Z</time>
      </trkpt>
      <trkpt lat="43.42741" lon="6.04232">
        <ele>367.41552734375</ele>
        <time>2014-12-03T15:04:28Z</time>
      </trkpt>
      <trkpt lat="43.42738" lon="6.0423">
        <ele>366.94763183594</ele>
        <time>2014-12-03T15:04:31Z</time>
      </trkpt>
      <trkpt lat="43.42736" lon="6.0423">
        <ele>366.80715942383</ele>
        <time>2014-12-03T15:04:32Z</time>
      </trkpt>
      <trkpt lat="43.42735" lon="6.04232">
        <ele>366.63458251953</ele>
        <time>2014-12-03T15:04:34Z</time>
      </trkpt>
      <trkpt lat="43.42733" lon="6.04235">
        <ele>366.41192626953</ele>
        <time>2014-12-03T15:04:36Z</time>
      </trkpt>
      <trkpt lat="43.42733" lon="6.04238">
        <ele>366.49591064453</ele>
        <time>2014-12-03T15:04:38Z</time>
      </trkpt>
      <trkpt lat="43.42733" lon="6.04249">
        <ele>366.48748779297</ele>
        <time>2014-12-03T15:04:42Z</time>
      </trkpt>
      <trkpt lat="43.42731" lon="6.04252">
        <ele>366.26889038086</ele>
        <time>2014-12-03T15:04:44Z</time>
      </trkpt>
      <trkpt lat="43.42731" lon="6.04252">
        <ele>366.14178466797</ele>
        <time>2014-12-03T15:04:45Z</time>
      </trkpt>
      <trkpt lat="43.4273" lon="6.04254">
        <ele>366.02215576172</ele>
        <time>2014-12-03T15:04:46Z</time>
      </trkpt>
      <trkpt lat="43.42725" lon="6.04258">
        <ele>365.18273925781</ele>
        <time>2014-12-03T15:04:49Z</time>
      </trkpt>
      <trkpt lat="43.42721" lon="6.0426">
        <ele>364.54254150391</ele>
        <time>2014-12-03T15:04:52Z</time>
      </trkpt>
      <trkpt lat="43.42713" lon="6.04262">
        <ele>363.3415222168</ele>
        <time>2014-12-03T15:04:56Z</time>
      </trkpt>
      <trkpt lat="43.42709" lon="6.04263">
        <ele>362.63983154297</ele>
        <time>2014-12-03T15:04:58Z</time>
      </trkpt>
      <trkpt lat="43.42698" lon="6.04267">
        <ele>361.01876831055</ele>
        <time>2014-12-03T15:05:02Z</time>
      </trkpt>
      <trkpt lat="43.42694" lon="6.04269">
        <ele>360.47396850586</ele>
        <time>2014-12-03T15:05:03Z</time>
      </trkpt>
      <trkpt lat="43.42684" lon="6.04274">
        <ele>358.84384155273</ele>
        <time>2014-12-03T15:05:06Z</time>
      </trkpt>
      <trkpt lat="43.42675" lon="6.04278">
        <ele>357.54574584961</ele>
        <time>2014-12-03T15:05:08Z</time>
      </trkpt>
      <trkpt lat="43.42671" lon="6.04281">
        <ele>356.89031982422</ele>
        <time>2014-12-03T15:05:09Z</time>
      </trkpt>
      <trkpt lat="43.42667" lon="6.04283">
        <ele>356.22329711914</ele>
        <time>2014-12-03T15:05:10Z</time>
      </trkpt>
      <trkpt lat="43.42661" lon="6.04285">
        <ele>356.81115722656</ele>
        <time>2014-12-03T15:05:11Z</time>
      </trkpt>
      <trkpt lat="43.42655" lon="6.04288">
        <ele>357.51910400391</ele>
        <time>2014-12-03T15:05:13Z</time>
      </trkpt>
      <trkpt lat="43.42652" lon="6.04289">
        <ele>357.83010864258</ele>
        <time>2014-12-03T15:05:14Z</time>
      </trkpt>
      <trkpt lat="43.42649" lon="6.04293">
        <ele>358.01342773438</ele>
        <time>2014-12-03T15:05:15Z</time>
      </trkpt>
      <trkpt lat="43.42649" lon="6.04298">
        <ele>357.96130371094</ele>
        <time>2014-12-03T15:05:16Z</time>
      </trkpt>
      <trkpt lat="43.42651" lon="6.04302">
        <ele>357.59857177734</ele>
        <time>2014-12-03T15:05:18Z</time>
      </trkpt>
      <trkpt lat="43.42653" lon="6.043">
        <ele>357.36499023438</ele>
        <time>2014-12-03T15:05:19Z</time>
      </trkpt>
      <trkpt lat="43.42652" lon="6.04295">
        <ele>357.70755004883</ele>
        <time>2014-12-03T15:05:22Z</time>
      </trkpt>
      <trkpt lat="43.42651" lon="6.04293">
        <ele>357.84332275391</ele>
        <time>2014-12-03T15:05:23Z</time>
      </trkpt>
      <trkpt lat="43.42651" lon="6.0429">
        <ele>357.97631835938</ele>
        <time>2014-12-03T15:05:29Z</time>
      </trkpt>
      <trkpt lat="43.42651" lon="6.0429">
        <ele>357.98178100586</ele>
        <time>2014-12-03T15:05:38Z</time>
      </trkpt>
      <trkpt lat="43.42651" lon="6.0429">
        <ele>357.91812133789</ele>
        <time>2014-12-03T15:05:49Z</time>
      </trkpt>
      <trkpt lat="43.42651" lon="6.04291">
        <ele>357.90451049805</ele>
        <time>2014-12-03T15:05:59Z</time>
      </trkpt>
      <trkpt lat="43.42651" lon="6.04291">
        <ele>357.90451049805</ele>
        <time>2014-12-03T15:06:18Z</time>
      </trkpt>
      <trkpt lat="43.42652" lon="6.04291">
        <ele>357.81549072266</ele>
        <time>2014-12-03T15:06:35Z</time>
      </trkpt>
      <trkpt lat="43.42651" lon="6.04291">
        <ele>357.84240722656</ele>
        <time>2014-12-03T15:06:41Z</time>
      </trkpt>
      <trkpt lat="43.42651" lon="6.04291">
        <ele>357.84103393555</ele>
        <time>2014-12-03T15:06:46Z</time>
      </trkpt>
      <trkpt lat="43.42651" lon="6.04292">
        <ele>357.83563232422</ele>
        <time>2014-12-03T15:07:04Z</time>
      </trkpt>
      <trkpt lat="43.42651" lon="6.04292">
        <ele>357.86102294922</ele>
        <time>2014-12-03T15:07:21Z</time>
      </trkpt>
      <trkpt lat="43.42651" lon="6.04293">
        <ele>357.85693359375</ele>
        <time>2014-12-03T15:07:34Z</time>
      </trkpt>
      <trkpt lat="43.42651" lon="6.04293">
        <ele>357.78958129883</ele>
        <time>2014-12-03T15:07:42Z</time>
      </trkpt>
      <trkpt lat="43.42651" lon="6.04293">
        <ele>357.83926391602</ele>
        <time>2014-12-03T15:08:01Z</time>
      </trkpt>
      <trkpt lat="43.42651" lon="6.04294">
        <ele>357.77737426758</ele>
        <time>2014-12-03T15:08:32Z</time>
      </trkpt>
      <trkpt lat="43.42652" lon="6.04295">
        <ele>357.64999389648</ele>
        <time>2014-12-03T15:08:43Z</time>
      </trkpt>
      <trkpt lat="43.42652" lon="6.04295">
        <ele>357.69271850586</ele>
        <time>2014-12-03T15:08:56Z</time>
      </trkpt>
      <trkpt lat="43.42651" lon="6.04295">
        <ele>357.78759765625</ele>
        <time>2014-12-03T15:08:59Z</time>
      </trkpt>
      <trkpt lat="43.42651" lon="6.04295">
        <ele>357.74758911133</ele>
        <time>2014-12-03T15:09:11Z</time>
      </trkpt>
      <trkpt lat="43.42654" lon="6.04295">
        <ele>357.46307373047</ele>
        <time>2014-12-03T15:09:37Z</time>
      </trkpt>
      <trkpt lat="43.42654" lon="6.04297">
        <ele>357.3092956543</ele>
        <time>2014-12-03T15:09:51Z</time>
      </trkpt>
      <trkpt lat="43.42654" lon="6.04303">
        <ele>357.2434387207</ele>
        <time>2014-12-03T15:09:58Z</time>
      </trkpt>
      <trkpt lat="43.42653" lon="6.04303">
        <ele>357.37432861328</ele>
        <time>2014-12-03T15:10:10Z</time>
      </trkpt>
      <trkpt lat="43.42651" lon="6.04304">
        <ele>357.47262573242</ele>
        <time>2014-12-03T15:10:14Z</time>
      </trkpt>
      <trkpt lat="43.42651" lon="6.04305">
        <ele>357.50747680664</ele>
        <time>2014-12-03T15:10:21Z</time>
      </trkpt>
      <trkpt lat="43.42646" lon="6.04305">
        <ele>358.02954101562</ele>
        <time>2014-12-03T15:10:29Z</time>
      </trkpt>
      <trkpt lat="43.42645" lon="6.04305">
        <ele>358.17681884766</ele>
        <time>2014-12-03T15:10:30Z</time>
      </trkpt>
      <trkpt lat="43.42642" lon="6.04307">
        <ele>358.50762939453</ele>
        <time>2014-12-03T15:10:35Z</time>
      </trkpt>
      <trkpt lat="43.42641" lon="6.04308">
        <ele>358.52789306641</ele>
        <time>2014-12-03T15:10:37Z</time>
      </trkpt>
      <trkpt lat="43.42636" lon="6.04312">
        <ele>358.99566650391</ele>
        <time>2014-12-03T15:10:44Z</time>
      </trkpt>
      <trkpt lat="43.42635" lon="6.04313">
        <ele>359.09622192383</ele>
        <time>2014-12-03T15:10:46Z</time>
      </trkpt>
      <trkpt lat="43.42632" lon="6.04314">
        <ele>359.46755981445</ele>
        <time>2014-12-03T15:10:52Z</time>
      </trkpt>
      <trkpt lat="43.4263" lon="6.04314">
        <ele>359.62619018555</ele>
        <time>2014-12-03T15:10:58Z</time>
      </trkpt>
      <trkpt lat="43.4263" lon="6.04314">
        <ele>359.62124633789</ele>
        <time>2014-12-03T15:10:59Z</time>
      </trkpt>
      <trkpt lat="43.4263" lon="6.04314">
        <ele>359.66290283203</ele>
        <time>2014-12-03T15:11:05Z</time>
      </trkpt>
      <trkpt lat="43.42627" lon="6.04316">
        <ele>359.86709594727</ele>
        <time>2014-12-03T15:11:07Z</time>
      </trkpt>
      <trkpt lat="43.42626" lon="6.04318">
        <ele>359.9284362793</ele>
        <time>2014-12-03T15:11:08Z</time>
      </trkpt>
      <trkpt lat="43.42622" lon="6.04319">
        <ele>360.39404296875</ele>
        <time>2014-12-03T15:11:12Z</time>
      </trkpt>
      <trkpt lat="43.4262" lon="6.0432">
        <ele>360.51873779297</ele>
        <time>2014-12-03T15:11:13Z</time>
      </trkpt>
      <trkpt lat="43.4262" lon="6.0432">
        <ele>360.55599975586</ele>
        <time>2014-12-03T15:11:14Z</time>
      </trkpt>
      <trkpt lat="43.4262" lon="6.0432">
        <ele>360.57748413086</ele>
        <time>2014-12-03T15:11:17Z</time>
      </trkpt>
      <trkpt lat="43.42617" lon="6.0432">
        <ele>360.83901977539</ele>
        <time>2014-12-03T15:11:21Z</time>
      </trkpt>
      <trkpt lat="43.42617" lon="6.0432">
        <ele>360.92807006836</ele>
        <time>2014-12-03T15:11:22Z</time>
      </trkpt>
      <trkpt lat="43.42615" lon="6.04321">
        <ele>361.09701538086</ele>
        <time>2014-12-03T15:11:25Z</time>
      </trkpt>
      <trkpt lat="43.42612" lon="6.04322">
        <ele>361.36926269531</ele>
        <time>2014-12-03T15:11:29Z</time>
      </trkpt>
      <trkpt lat="43.42609" lon="6.04323">
        <ele>361.65826416016</ele>
        <time>2014-12-03T15:11:33Z</time>
      </trkpt>
      <trkpt lat="43.42607" lon="6.04323">
        <ele>361.81600952148</ele>
        <time>2014-12-03T15:11:42Z</time>
      </trkpt>
      <trkpt lat="43.42606" lon="6.04324">
        <ele>361.94580078125</ele>
        <time>2014-12-03T15:11:50Z</time>
      </trkpt>
      <trkpt lat="43.42604" lon="6.04324">
        <ele>362.19116210938</ele>
        <time>2014-12-03T15:11:57Z</time>
      </trkpt>
      <trkpt lat="43.42602" lon="6.04325">
        <ele>362.37780761719</ele>
        <time>2014-12-03T15:12:03Z</time>
      </trkpt>
      <trkpt lat="43.42599" lon="6.04326">
        <ele>362.59350585938</ele>
        <time>2014-12-03T15:12:08Z</time>
      </trkpt>
      <trkpt lat="43.42598" lon="6.04327">
        <ele>362.71160888672</ele>
        <time>2014-12-03T15:12:11Z</time>
      </trkpt>
      <trkpt lat="43.42596" lon="6.04328">
        <ele>362.86840820312</ele>
        <time>2014-12-03T15:12:17Z</time>
      </trkpt>
      <trkpt lat="43.42596" lon="6.04328">
        <ele>362.89962768555</ele>
        <time>2014-12-03T15:12:18Z</time>
      </trkpt>
      <trkpt lat="43.42594" lon="6.04329">
        <ele>363.01962280273</ele>
        <time>2014-12-03T15:12:20Z</time>
      </trkpt>
      <trkpt lat="43.4259" lon="6.04332">
        <ele>363.40274047852</ele>
        <time>2014-12-03T15:12:28Z</time>
      </trkpt>
      <trkpt lat="43.42588" lon="6.04332">
        <ele>363.52688598633</ele>
        <time>2014-12-03T15:12:30Z</time>
      </trkpt>
      <trkpt lat="43.42585" lon="6.04333">
        <ele>363.84039306641</ele>
        <time>2014-12-03T15:12:36Z</time>
      </trkpt>
      <trkpt lat="43.42583" lon="6.04336">
        <ele>363.90414428711</ele>
        <time>2014-12-03T15:12:40Z</time>
      </trkpt>
      <trkpt lat="43.42584" lon="6.04335">
        <ele>363.87283325195</ele>
        <time>2014-12-03T15:12:41Z</time>
      </trkpt>
      <trkpt lat="43.42581" lon="6.04338">
        <ele>363.94842529297</ele>
        <time>2014-12-03T15:12:50Z</time>
      </trkpt>
      <trkpt lat="43.42578" lon="6.04341">
        <ele>364.0703125</ele>
        <time>2014-12-03T15:12:57Z</time>
      </trkpt>
      <trkpt lat="43.42577" lon="6.04339">
        <ele>364.19561767578</ele>
        <time>2014-12-03T15:12:59Z</time>
      </trkpt>
      <trkpt lat="43.42572" lon="6.04336">
        <ele>364.57672119141</ele>
        <time>2014-12-03T15:13:06Z</time>
      </trkpt>
      <trkpt lat="43.42572" lon="6.04336">
        <ele>364.59790039062</ele>
        <time>2014-12-03T15:13:07Z</time>
      </trkpt>
      <trkpt lat="43.42569" lon="6.04337">
        <ele>364.73922729492</ele>
        <time>2014-12-03T15:13:14Z</time>
      </trkpt>
      <trkpt lat="43.42565" lon="6.04339">
        <ele>364.88226318359</ele>
        <time>2014-12-03T15:13:22Z</time>
      </trkpt>
      <trkpt lat="43.42565" lon="6.0434">
        <ele>364.88970947266</ele>
        <time>2014-12-03T15:13:31Z</time>
      </trkpt>
      <trkpt lat="43.42564" lon="6.0434">
        <ele>364.92346191406</ele>
        <time>2014-12-03T15:13:38Z</time>
      </trkpt>
      <trkpt lat="43.42563" lon="6.0434">
        <ele>364.97439575195</ele>
        <time>2014-12-03T15:13:39Z</time>
      </trkpt>
      <trkpt lat="43.42562" lon="6.0434">
        <ele>365.04992675781</ele>
        <time>2014-12-03T15:13:40Z</time>
      </trkpt>
      <trkpt lat="43.42554" lon="6.04342">
        <ele>365.43560791016</ele>
        <time>2014-12-03T15:13:45Z</time>
      </trkpt>
      <trkpt lat="43.42552" lon="6.04342">
        <ele>365.54202270508</ele>
        <time>2014-12-03T15:13:47Z</time>
      </trkpt>
      <trkpt lat="43.42552" lon="6.04342">
        <ele>365.55404663086</ele>
        <time>2014-12-03T15:13:50Z</time>
      </trkpt>
      <trkpt lat="43.42551" lon="6.04343">
        <ele>365.60552978516</ele>
        <time>2014-12-03T15:13:57Z</time>
      </trkpt>
      <trkpt lat="43.42548" lon="6.04342">
        <ele>365.80010986328</ele>
        <time>2014-12-03T15:14:05Z</time>
      </trkpt>
      <trkpt lat="43.42545" lon="6.04342">
        <ele>365.96432495117</ele>
        <time>2014-12-03T15:14:13Z</time>
      </trkpt>
      <trkpt lat="43.42543" lon="6.04343">
        <ele>366.06503295898</ele>
        <time>2014-12-03T15:14:14Z</time>
      </trkpt>
      <trkpt lat="43.42533" lon="6.04345">
        <ele>366.58801269531</ele>
        <time>2014-12-03T15:14:20Z</time>
      </trkpt>
      <trkpt lat="43.42532" lon="6.04344">
        <ele>366.71105957031</ele>
        <time>2014-12-03T15:14:21Z</time>
      </trkpt>
      <trkpt lat="43.42526" lon="6.04345">
        <ele>367.01602172852</ele>
        <time>2014-12-03T15:14:24Z</time>
      </trkpt>
      <trkpt lat="43.4252" lon="6.04341">
        <ele>367.51098632812</ele>
        <time>2014-12-03T15:14:28Z</time>
      </trkpt>
      <trkpt lat="43.42509" lon="6.04336">
        <ele>368.34753417969</ele>
        <time>2014-12-03T15:14:35Z</time>
      </trkpt>
      <trkpt lat="43.425" lon="6.04331">
        <ele>369.01037597656</ele>
        <time>2014-12-03T15:14:41Z</time>
      </trkpt>
      <trkpt lat="43.42493" lon="6.04327">
        <ele>368.57736206055</ele>
        <time>2014-12-03T15:14:47Z</time>
      </trkpt>
      <trkpt lat="43.42486" lon="6.04324">
        <ele>368.0168762207</ele>
        <time>2014-12-03T15:14:53Z</time>
      </trkpt>
      <trkpt lat="43.42485" lon="6.04325">
        <ele>367.96276855469</ele>
        <time>2014-12-03T15:14:54Z</time>
      </trkpt>
      <trkpt lat="43.42479" lon="6.04321">
        <ele>367.42764282227</ele>
        <time>2014-12-03T15:14:59Z</time>
      </trkpt>
      <trkpt lat="43.42475" lon="6.04319">
        <ele>366.99267578125</ele>
        <time>2014-12-03T15:15:03Z</time>
      </trkpt>
      <trkpt lat="43.42474" lon="6.04319">
        <ele>366.91296386719</ele>
        <time>2014-12-03T15:15:05Z</time>
      </trkpt>
      <trkpt lat="43.42474" lon="6.04319">
        <ele>366.91647338867</ele>
        <time>2014-12-03T15:15:08Z</time>
      </trkpt>
      <trkpt lat="43.42473" lon="6.04319">
        <ele>366.80618286133</ele>
        <time>2014-12-03T15:15:15Z</time>
      </trkpt>
      <trkpt lat="43.42473" lon="6.04319">
        <ele>366.80062866211</ele>
        <time>2014-12-03T15:15:23Z</time>
      </trkpt>
      <trkpt lat="43.42473" lon="6.04319">
        <ele>366.79693603516</ele>
        <time>2014-12-03T15:15:30Z</time>
      </trkpt>
      <trkpt lat="43.42473" lon="6.04319">
        <ele>366.79693603516</ele>
        <time>2014-12-03T15:15:33Z</time>
      </trkpt>
      <trkpt lat="43.42473" lon="6.04319">
        <ele>366.79507446289</ele>
        <time>2014-12-03T15:15:44Z</time>
      </trkpt>
      <trkpt lat="43.42473" lon="6.04319">
        <ele>366.80249023438</ele>
        <time>2014-12-03T15:15:48Z</time>
      </trkpt>
      <trkpt lat="43.42472" lon="6.0432">
        <ele>366.7799987793</ele>
        <time>2014-12-03T15:15:53Z</time>
      </trkpt>
      <trkpt lat="43.42472" lon="6.0432">
        <ele>366.75137329102</ele>
        <time>2014-12-03T15:15:55Z</time>
      </trkpt>
      <trkpt lat="43.42472" lon="6.0432">
        <ele>366.75723266602</ele>
        <time>2014-12-03T15:16:01Z</time>
      </trkpt>
      <trkpt lat="43.42472" lon="6.04321">
        <ele>366.84527587891</ele>
        <time>2014-12-03T15:16:05Z</time>
      </trkpt>
      <trkpt lat="43.42472" lon="6.04323">
        <ele>366.92193603516</ele>
        <time>2014-12-03T15:16:12Z</time>
      </trkpt>
      <trkpt lat="43.42474" lon="6.04326">
        <ele>367.16146850586</ele>
        <time>2014-12-03T15:16:23Z</time>
      </trkpt>
      <trkpt lat="43.42474" lon="6.04329">
        <ele>367.31848144531</ele>
        <time>2014-12-03T15:16:25Z</time>
      </trkpt>
      <trkpt lat="43.42474" lon="6.04332">
        <ele>367.35977172852</ele>
        <time>2014-12-03T15:16:26Z</time>
      </trkpt>
      <trkpt lat="43.42471" lon="6.04335">
        <ele>367.20269775391</ele>
        <time>2014-12-03T15:16:29Z</time>
      </trkpt>
      <trkpt lat="43.4247" lon="6.0434">
        <ele>367.06362915039</ele>
        <time>2014-12-03T15:16:34Z</time>
      </trkpt>
      <trkpt lat="43.4247" lon="6.04341">
        <ele>367.05120849609</ele>
        <time>2014-12-03T15:16:39Z</time>
      </trkpt>
      <trkpt lat="43.4247" lon="6.04341">
        <ele>367.04321289062</ele>
        <time>2014-12-03T15:16:41Z</time>
      </trkpt>
      <trkpt lat="43.42467" lon="6.04352">
        <ele>366.72659301758</ele>
        <time>2014-12-03T15:16:48Z</time>
      </trkpt>
      <trkpt lat="43.42466" lon="6.0436">
        <ele>366.51620483398</ele>
        <time>2014-12-03T15:16:52Z</time>
      </trkpt>
      <trkpt lat="43.42467" lon="6.04374">
        <ele>366.33444213867</ele>
        <time>2014-12-03T15:16:59Z</time>
      </trkpt>
      <trkpt lat="43.42467" lon="6.04381">
        <ele>366.23306274414</ele>
        <time>2014-12-03T15:17:03Z</time>
      </trkpt>
      <trkpt lat="43.42467" lon="6.04386">
        <ele>366.14242553711</ele>
        <time>2014-12-03T15:17:06Z</time>
      </trkpt>
      <trkpt lat="43.42467" lon="6.04397">
        <ele>365.93264770508</ele>
        <time>2014-12-03T15:17:11Z</time>
      </trkpt>
      <trkpt lat="43.42466" lon="6.04399">
        <ele>365.89758300781</ele>
        <time>2014-12-03T15:17:12Z</time>
      </trkpt>
      <trkpt lat="43.42462" lon="6.0441">
        <ele>365.64694213867</ele>
        <time>2014-12-03T15:17:17Z</time>
      </trkpt>
      <trkpt lat="43.42461" lon="6.04413">
        <ele>365.57220458984</ele>
        <time>2014-12-03T15:17:19Z</time>
      </trkpt>
      <trkpt lat="43.42458" lon="6.04423">
        <ele>365.24221801758</ele>
        <time>2014-12-03T15:17:23Z</time>
      </trkpt>
      <trkpt lat="43.42457" lon="6.04433">
        <ele>364.80581665039</ele>
        <time>2014-12-03T15:17:26Z</time>
      </trkpt>
      <trkpt lat="43.42455" lon="6.04439">
        <ele>364.51745605469</ele>
        <time>2014-12-03T15:17:28Z</time>
      </trkpt>
      <trkpt lat="43.42453" lon="6.04442">
        <ele>364.33944702148</ele>
        <time>2014-12-03T15:17:29Z</time>
      </trkpt>
      <trkpt lat="43.42453" lon="6.04449">
        <ele>364.07849121094</ele>
        <time>2014-12-03T15:17:31Z</time>
      </trkpt>
      <trkpt lat="43.42455" lon="6.04452">
        <ele>363.96765136719</ele>
        <time>2014-12-03T15:17:32Z</time>
      </trkpt>
      <trkpt lat="43.42461" lon="6.0446">
        <ele>363.74572753906</ele>
        <time>2014-12-03T15:17:36Z</time>
      </trkpt>
      <trkpt lat="43.42463" lon="6.04467">
        <ele>363.48233032227</ele>
        <time>2014-12-03T15:17:38Z</time>
      </trkpt>
      <trkpt lat="43.42463" lon="6.04469">
        <ele>363.41232299805</ele>
        <time>2014-12-03T15:17:39Z</time>
      </trkpt>
      <trkpt lat="43.42464" lon="6.04471">
        <ele>363.3466796875</ele>
        <time>2014-12-03T15:17:40Z</time>
      </trkpt>
      <trkpt lat="43.42466" lon="6.04471">
        <ele>363.35147094727</ele>
        <time>2014-12-03T15:17:41Z</time>
      </trkpt>
      <trkpt lat="43.42466" lon="6.04471">
        <ele>363.36685180664</ele>
        <time>2014-12-03T15:17:44Z</time>
      </trkpt>
      <trkpt lat="43.42466" lon="6.04471">
        <ele>363.38439941406</ele>
        <time>2014-12-03T15:17:50Z</time>
      </trkpt>
      <trkpt lat="43.4247" lon="6.0447">
        <ele>363.47695922852</ele>
        <time>2014-12-03T15:17:54Z</time>
      </trkpt>
      <trkpt lat="43.42472" lon="6.04472">
        <ele>363.46688842773</ele>
        <time>2014-12-03T15:17:55Z</time>
      </trkpt>
      <trkpt lat="43.42474" lon="6.04481">
        <ele>363.11825561523</ele>
        <time>2014-12-03T15:17:58Z</time>
      </trkpt>
      <trkpt lat="43.42482" lon="6.04498">
        <ele>362.64688110352</ele>
        <time>2014-12-03T15:18:02Z</time>
      </trkpt>
      <trkpt lat="43.42484" lon="6.04512">
        <ele>361.56280517578</ele>
        <time>2014-12-03T15:18:06Z</time>
      </trkpt>
      <trkpt lat="43.42481" lon="6.04521">
        <ele>360.67868041992</ele>
        <time>2014-12-03T15:18:09Z</time>
      </trkpt>
      <trkpt lat="43.4248" lon="6.04525">
        <ele>360.31253051758</ele>
        <time>2014-12-03T15:18:10Z</time>
      </trkpt>
      <trkpt lat="43.4248" lon="6.04529">
        <ele>359.92364501953</ele>
        <time>2014-12-03T15:18:11Z</time>
      </trkpt>
      <trkpt lat="43.4248" lon="6.04538">
        <ele>359.14965820312</ele>
        <time>2014-12-03T15:18:14Z</time>
      </trkpt>
      <trkpt lat="43.4248" lon="6.04541">
        <ele>358.8125</ele>
        <time>2014-12-03T15:18:16Z</time>
      </trkpt>
      <trkpt lat="43.4248" lon="6.04545">
        <ele>358.46502685547</ele>
        <time>2014-12-03T15:18:17Z</time>
      </trkpt>
      <trkpt lat="43.42479" lon="6.04548">
        <ele>358.18063354492</ele>
        <time>2014-12-03T15:18:18Z</time>
      </trkpt>
      <trkpt lat="43.42477" lon="6.04551">
        <ele>357.8076171875</ele>
        <time>2014-12-03T15:18:20Z</time>
      </trkpt>
      <trkpt lat="43.42477" lon="6.04553">
        <ele>357.67172241211</ele>
        <time>2014-12-03T15:18:21Z</time>
      </trkpt>
      <trkpt lat="43.42475" lon="6.04558">
        <ele>357.13818359375</ele>
        <time>2014-12-03T15:18:24Z</time>
      </trkpt>
      <trkpt lat="43.42474" lon="6.04561">
        <ele>356.81521606445</ele>
        <time>2014-12-03T15:18:25Z</time>
      </trkpt>
      <trkpt lat="43.42475" lon="6.04563">
        <ele>356.62652587891</ele>
        <time>2014-12-03T15:18:26Z</time>
      </trkpt>
      <trkpt lat="43.42477" lon="6.04568">
        <ele>356.28173828125</ele>
        <time>2014-12-03T15:18:28Z</time>
      </trkpt>
      <trkpt lat="43.42475" lon="6.04574">
        <ele>355.66018676758</ele>
        <time>2014-12-03T15:18:30Z</time>
      </trkpt>
      <trkpt lat="43.42474" lon="6.04576">
        <ele>355.41201782227</ele>
        <time>2014-12-03T15:18:31Z</time>
      </trkpt>
      <trkpt lat="43.42473" lon="6.0458">
        <ele>355.03985595703</ele>
        <time>2014-12-03T15:18:32Z</time>
      </trkpt>
      <trkpt lat="43.42471" lon="6.04583">
        <ele>354.65963745117</ele>
        <time>2014-12-03T15:18:33Z</time>
      </trkpt>
      <trkpt lat="43.4247" lon="6.04589">
        <ele>353.75335693359</ele>
        <time>2014-12-03T15:18:35Z</time>
      </trkpt>
      <trkpt lat="43.42467" lon="6.04602">
        <ele>352.03848266602</ele>
        <time>2014-12-03T15:18:38Z</time>
      </trkpt>
      <trkpt lat="43.42465" lon="6.04603">
        <ele>351.74609375</ele>
        <time>2014-12-03T15:18:39Z</time>
      </trkpt>
      <trkpt lat="43.42464" lon="6.04608">
        <ele>351.00506591797</ele>
        <time>2014-12-03T15:18:41Z</time>
      </trkpt>
      <trkpt lat="43.42461" lon="6.04612">
        <ele>350.39224243164</ele>
        <time>2014-12-03T15:18:43Z</time>
      </trkpt>
      <trkpt lat="43.42458" lon="6.04616">
        <ele>349.63006591797</ele>
        <time>2014-12-03T15:18:47Z</time>
      </trkpt>
      <trkpt lat="43.42457" lon="6.04619">
        <ele>349.2907409668</ele>
        <time>2014-12-03T15:18:48Z</time>
      </trkpt>
      <trkpt lat="43.42456" lon="6.04627">
        <ele>348.15893554688</ele>
        <time>2014-12-03T15:18:51Z</time>
      </trkpt>
      <trkpt lat="43.42456" lon="6.0463">
        <ele>347.6565246582</ele>
        <time>2014-12-03T15:18:52Z</time>
      </trkpt>
      <trkpt lat="43.42455" lon="6.0464">
        <ele>346.32958984375</ele>
        <time>2014-12-03T15:18:54Z</time>
      </trkpt>
      <trkpt lat="43.42453" lon="6.0465">
        <ele>344.9294128418</ele>
        <time>2014-12-03T15:18:56Z</time>
      </trkpt>
      <trkpt lat="43.42451" lon="6.04654">
        <ele>344.36465454102</ele>
        <time>2014-12-03T15:18:57Z</time>
      </trkpt>
      <trkpt lat="43.42448" lon="6.04663">
        <ele>342.97305297852</ele>
        <time>2014-12-03T15:19:00Z</time>
      </trkpt>
      <trkpt lat="43.42447" lon="6.04666">
        <ele>342.51528930664</ele>
        <time>2014-12-03T15:19:01Z</time>
      </trkpt>
      <trkpt lat="43.42443" lon="6.04673">
        <ele>341.95791625977</ele>
        <time>2014-12-03T15:19:03Z</time>
      </trkpt>
      <trkpt lat="43.4244" lon="6.04673">
        <ele>341.83941650391</ele>
        <time>2014-12-03T15:19:05Z</time>
      </trkpt>
      <trkpt lat="43.42435" lon="6.0467">
        <ele>341.76956176758</ele>
        <time>2014-12-03T15:19:10Z</time>
      </trkpt>
      <trkpt lat="43.42432" lon="6.0467">
        <ele>341.61993408203</ele>
        <time>2014-12-03T15:19:13Z</time>
      </trkpt>
      <trkpt lat="43.42427" lon="6.04673">
        <ele>341.30258178711</ele>
        <time>2014-12-03T15:19:16Z</time>
      </trkpt>
      <trkpt lat="43.42418" lon="6.04683">
        <ele>340.65557861328</ele>
        <time>2014-12-03T15:19:21Z</time>
      </trkpt>
      <trkpt lat="43.42414" lon="6.04696">
        <ele>340.2951965332</ele>
        <time>2014-12-03T15:19:26Z</time>
      </trkpt>
      <trkpt lat="43.42413" lon="6.04697">
        <ele>340.26574707031</ele>
        <time>2014-12-03T15:19:27Z</time>
      </trkpt>
      <trkpt lat="43.42409" lon="6.04701">
        <ele>340.16540527344</ele>
        <time>2014-12-03T15:19:30Z</time>
      </trkpt>
      <trkpt lat="43.42406" lon="6.04711">
        <ele>339.95394897461</ele>
        <time>2014-12-03T15:19:35Z</time>
      </trkpt>
      <trkpt lat="43.42406" lon="6.04713">
        <ele>339.89846801758</ele>
        <time>2014-12-03T15:19:36Z</time>
      </trkpt>
      <trkpt lat="43.42402" lon="6.04719">
        <ele>339.77932739258</ele>
        <time>2014-12-03T15:19:41Z</time>
      </trkpt>
      <trkpt lat="43.42396" lon="6.04721">
        <ele>339.76406860352</ele>
        <time>2014-12-03T15:19:46Z</time>
      </trkpt>
      <trkpt lat="43.42391" lon="6.04723">
        <ele>339.76071166992</ele>
        <time>2014-12-03T15:19:51Z</time>
      </trkpt>
      <trkpt lat="43.4239" lon="6.04723">
        <ele>339.75454711914</ele>
        <time>2014-12-03T15:19:59Z</time>
      </trkpt>
      <trkpt lat="43.4239" lon="6.04723">
        <ele>339.76235961914</ele>
        <time>2014-12-03T15:20:06Z</time>
      </trkpt>
      <trkpt lat="43.4239" lon="6.04723">
        <ele>339.7600402832</ele>
        <time>2014-12-03T15:20:07Z</time>
      </trkpt>
      <trkpt lat="43.4239" lon="6.04723">
        <ele>339.76391601562</ele>
        <time>2014-12-03T15:20:20Z</time>
      </trkpt>
      <trkpt lat="43.42389" lon="6.04725">
        <ele>339.72970581055</ele>
        <time>2014-12-03T15:20:27Z</time>
      </trkpt>
      <trkpt lat="43.42389" lon="6.04726">
        <ele>339.72702026367</ele>
        <time>2014-12-03T15:20:30Z</time>
      </trkpt>
      <trkpt lat="43.42389" lon="6.04726">
        <ele>339.72702026367</ele>
        <time>2014-12-03T15:20:35Z</time>
      </trkpt>
      <trkpt lat="43.42389" lon="6.04726">
        <ele>339.72476196289</ele>
        <time>2014-12-03T15:20:49Z</time>
      </trkpt>
      <trkpt lat="43.42388" lon="6.04727">
        <ele>339.70986938477</ele>
        <time>2014-12-03T15:20:58Z</time>
      </trkpt>
      <trkpt lat="43.42387" lon="6.04728">
        <ele>339.68814086914</ele>
        <time>2014-12-03T15:21:02Z</time>
      </trkpt>
      <trkpt lat="43.42388" lon="6.04729">
        <ele>339.68218994141</ele>
        <time>2014-12-03T15:21:08Z</time>
      </trkpt>
      <trkpt lat="43.42388" lon="6.04729">
        <ele>339.67846679688</ele>
        <time>2014-12-03T15:21:21Z</time>
      </trkpt>
      <trkpt lat="43.42387" lon="6.04729">
        <ele>339.6799621582</ele>
        <time>2014-12-03T15:21:31Z</time>
      </trkpt>
      <trkpt lat="43.42387" lon="6.04729">
        <ele>339.6755065918</ele>
        <time>2014-12-03T15:21:54Z</time>
      </trkpt>
      <trkpt lat="43.42387" lon="6.04729">
        <ele>339.6755065918</ele>
        <time>2014-12-03T15:22:27Z</time>
      </trkpt>
      <trkpt lat="43.42387" lon="6.04732">
        <ele>339.6296081543</ele>
        <time>2014-12-03T15:22:33Z</time>
      </trkpt>
      <trkpt lat="43.42386" lon="6.04733">
        <ele>339.62933349609</ele>
        <time>2014-12-03T15:22:44Z</time>
      </trkpt>
      <trkpt lat="43.42386" lon="6.04733">
        <ele>339.63153076172</ele>
        <time>2014-12-03T15:23:10Z</time>
      </trkpt>
      <trkpt lat="43.42386" lon="6.04733">
        <ele>339.6220703125</ele>
        <time>2014-12-03T15:25:03Z</time>
      </trkpt>
      <trkpt lat="43.42387" lon="6.04733">
        <ele>339.62155151367</ele>
        <time>2014-12-03T15:25:56Z</time>
      </trkpt>
      <trkpt lat="43.42387" lon="6.04733">
        <ele>339.62155151367</ele>
        <time>2014-12-03T15:26:01Z</time>
      </trkpt>
      <trkpt lat="43.42387" lon="6.04733">
        <ele>339.6266784668</ele>
        <time>2014-12-03T15:26:40Z</time>
      </trkpt>
      <trkpt lat="43.42387" lon="6.04733">
        <ele>339.62521362305</ele>
        <time>2014-12-03T15:27:22Z</time>
      </trkpt>
      <trkpt lat="43.42387" lon="6.04733">
        <ele>339.61935424805</ele>
        <time>2014-12-03T15:32:27Z</time>
      </trkpt>
      <trkpt lat="43.42387" lon="6.04734">
        <ele>339.61056518555</ele>
        <time>2014-12-03T15:32:54Z</time>
      </trkpt>
      <trkpt lat="43.42387" lon="6.04734">
        <ele>339.60836791992</ele>
        <time>2014-12-03T15:32:56Z</time>
      </trkpt>
      <trkpt lat="43.42386" lon="6.04734">
        <ele>339.60971069336</ele>
        <time>2014-12-03T15:32:59Z</time>
      </trkpt>
      <trkpt lat="43.42386" lon="6.04734">
        <ele>339.60754394531</ele>
        <time>2014-12-03T15:33:13Z</time>
      </trkpt>
      <trkpt lat="43.42386" lon="6.04734">
        <ele>339.60681152344</ele>
        <time>2014-12-03T15:33:31Z</time>
      </trkpt>
      <trkpt lat="43.42387" lon="6.04733">
        <ele>339.6149597168</ele>
        <time>2014-12-03T15:34:44Z</time>
      </trkpt>
      <trkpt lat="43.42387" lon="6.04733">
        <ele>339.6149597168</ele>
        <time>2014-12-03T15:35:06Z</time>
      </trkpt>
      <trkpt lat="43.42385" lon="6.0474">
        <ele>339.53012084961</ele>
        <time>2014-12-03T15:35:52Z</time>
      </trkpt>
      <trkpt lat="43.42384" lon="6.04741">
        <ele>339.52648925781</ele>
        <time>2014-12-03T15:35:54Z</time>
      </trkpt>
      <trkpt lat="43.42384" lon="6.04743">
        <ele>339.50247192383</ele>
        <time>2014-12-03T15:35:59Z</time>
      </trkpt>
      <trkpt lat="43.42386" lon="6.04747">
        <ele>339.41415405273</ele>
        <time>2014-12-03T15:36:06Z</time>
      </trkpt>
      <trkpt lat="43.42387" lon="6.04748">
        <ele>339.38885498047</ele>
        <time>2014-12-03T15:36:07Z</time>
      </trkpt>
      <trkpt lat="43.4239" lon="6.04753">
        <ele>339.50933837891</ele>
        <time>2014-12-03T15:36:12Z</time>
      </trkpt>
      <trkpt lat="43.4239" lon="6.04753">
        <ele>339.56393432617</ele>
        <time>2014-12-03T15:36:17Z</time>
      </trkpt>
      <trkpt lat="43.42392" lon="6.04758">
        <ele>339.87274169922</ele>
        <time>2014-12-03T15:36:21Z</time>
      </trkpt>
      <trkpt lat="43.42392" lon="6.0476">
        <ele>339.96850585938</ele>
        <time>2014-12-03T15:36:22Z</time>
      </trkpt>
      <trkpt lat="43.42397" lon="6.04764">
        <ele>340.20462036133</ele>
        <time>2014-12-03T15:36:26Z</time>
      </trkpt>
      <trkpt lat="43.42402" lon="6.04764">
        <ele>340.10891723633</ele>
        <time>2014-12-03T15:36:28Z</time>
      </trkpt>
      <trkpt lat="43.42406" lon="6.04759">
        <ele>339.72204589844</ele>
        <time>2014-12-03T15:36:31Z</time>
      </trkpt>
      <trkpt lat="43.42407" lon="6.04757">
        <ele>339.5846862793</ele>
        <time>2014-12-03T15:36:32Z</time>
      </trkpt>
      <trkpt lat="43.42411" lon="6.04756">
        <ele>339.45269775391</ele>
        <time>2014-12-03T15:36:34Z</time>
      </trkpt>
      <trkpt lat="43.42413" lon="6.04756">
        <ele>339.43930053711</ele>
        <time>2014-12-03T15:36:35Z</time>
      </trkpt>
      <trkpt lat="43.42414" lon="6.04757">
        <ele>339.43978881836</ele>
        <time>2014-12-03T15:36:36Z</time>
      </trkpt>
      <trkpt lat="43.4242" lon="6.04758">
        <ele>339.33804321289</ele>
        <time>2014-12-03T15:36:40Z</time>
      </trkpt>
      <trkpt lat="43.42424" lon="6.04758">
        <ele>339.17999267578</ele>
        <time>2014-12-03T15:36:42Z</time>
      </trkpt>
      <trkpt lat="43.42426" lon="6.04757">
        <ele>339.08755493164</ele>
        <time>2014-12-03T15:36:43Z</time>
      </trkpt>
      <trkpt lat="43.4243" lon="6.04755">
        <ele>338.82083129883</ele>
        <time>2014-12-03T15:36:46Z</time>
      </trkpt>
      <trkpt lat="43.42435" lon="6.04753">
        <ele>338.62289428711</ele>
        <time>2014-12-03T15:36:50Z</time>
      </trkpt>
      <trkpt lat="43.42436" lon="6.04752">
        <ele>338.58361816406</ele>
        <time>2014-12-03T15:36:51Z</time>
      </trkpt>
      <trkpt lat="43.42439" lon="6.04754">
        <ele>338.49978637695</ele>
        <time>2014-12-03T15:36:54Z</time>
      </trkpt>
      <trkpt lat="43.4244" lon="6.04758">
        <ele>338.52944946289</ele>
        <time>2014-12-03T15:36:56Z</time>
      </trkpt>
      <trkpt lat="43.4244" lon="6.04765">
        <ele>338.58200073242</ele>
        <time>2014-12-03T15:37:00Z</time>
      </trkpt>
      <trkpt lat="43.4244" lon="6.04766">
        <ele>338.61041259766</ele>
        <time>2014-12-03T15:37:03Z</time>
      </trkpt>
      <trkpt lat="43.42437" lon="6.0477">
        <ele>338.83090209961</ele>
        <time>2014-12-03T15:37:10Z</time>
      </trkpt>
      <trkpt lat="43.42437" lon="6.04771">
        <ele>338.87167358398</ele>
        <time>2014-12-03T15:37:11Z</time>
      </trkpt>
      <trkpt lat="43.42437" lon="6.04772">
        <ele>338.86627197266</ele>
        <time>2014-12-03T15:37:12Z</time>
      </trkpt>
      <trkpt lat="43.42437" lon="6.04777">
        <ele>338.95080566406</ele>
        <time>2014-12-03T15:37:17Z</time>
      </trkpt>
      <trkpt lat="43.42437" lon="6.0478">
        <ele>338.96011352539</ele>
        <time>2014-12-03T15:37:21Z</time>
      </trkpt>
      <trkpt lat="43.42437" lon="6.04783">
        <ele>339.00094604492</ele>
        <time>2014-12-03T15:37:24Z</time>
      </trkpt>
      <trkpt lat="43.42438" lon="6.04786">
        <ele>339.01675415039</ele>
        <time>2014-12-03T15:37:30Z</time>
      </trkpt>
      <trkpt lat="43.42438" lon="6.04788">
        <ele>339.04089355469</ele>
        <time>2014-12-03T15:37:31Z</time>
      </trkpt>
      <trkpt lat="43.42437" lon="6.04795">
        <ele>339.28698730469</ele>
        <time>2014-12-03T15:37:36Z</time>
      </trkpt>
      <trkpt lat="43.42436" lon="6.04796">
        <ele>339.34606933594</ele>
        <time>2014-12-03T15:37:37Z</time>
      </trkpt>
      <trkpt lat="43.42436" lon="6.04796">
        <ele>339.35540771484</ele>
        <time>2014-12-03T15:37:39Z</time>
      </trkpt>
      <trkpt lat="43.42436" lon="6.04797">
        <ele>339.41253662109</ele>
        <time>2014-12-03T15:37:42Z</time>
      </trkpt>
      <trkpt lat="43.42433" lon="6.04803">
        <ele>339.88671875</ele>
        <time>2014-12-03T15:37:49Z</time>
      </trkpt>
      <trkpt lat="43.42433" lon="6.04805">
        <ele>339.99450683594</ele>
        <time>2014-12-03T15:37:51Z</time>
      </trkpt>
      <trkpt lat="43.42433" lon="6.04805">
        <ele>340.00891113281</ele>
        <time>2014-12-03T15:37:58Z</time>
      </trkpt>
      <trkpt lat="43.42433" lon="6.04808">
        <ele>340.07736206055</ele>
        <time>2014-12-03T15:38:04Z</time>
      </trkpt>
      <trkpt lat="43.42434" lon="6.04814">
        <ele>340.03289794922</ele>
        <time>2014-12-03T15:38:08Z</time>
      </trkpt>
      <trkpt lat="43.42436" lon="6.04816">
        <ele>339.69937133789</ele>
        <time>2014-12-03T15:38:10Z</time>
      </trkpt>
      <trkpt lat="43.42439" lon="6.04818">
        <ele>339.21658325195</ele>
        <time>2014-12-03T15:38:12Z</time>
      </trkpt>
      <trkpt lat="43.42441" lon="6.04821">
        <ele>338.9108581543</ele>
        <time>2014-12-03T15:38:14Z</time>
      </trkpt>
      <trkpt lat="43.42443" lon="6.04829">
        <ele>338.52450561523</ele>
        <time>2014-12-03T15:38:19Z</time>
      </trkpt>
      <trkpt lat="43.42445" lon="6.04841">
        <ele>338.78768920898</ele>
        <time>2014-12-03T15:38:26Z</time>
      </trkpt>
      <trkpt lat="43.42444" lon="6.04845">
        <ele>339.08294677734</ele>
        <time>2014-12-03T15:38:28Z</time>
      </trkpt>
      <trkpt lat="43.42445" lon="6.04864">
        <ele>340.15811157227</ele>
        <time>2014-12-03T15:38:37Z</time>
      </trkpt>
      <trkpt lat="43.42444" lon="6.04876">
        <ele>340.99468994141</ele>
        <time>2014-12-03T15:38:42Z</time>
      </trkpt>
      <trkpt lat="43.42443" lon="6.04882">
        <ele>341.46731567383</ele>
        <time>2014-12-03T15:38:45Z</time>
      </trkpt>
      <trkpt lat="43.42444" lon="6.04884">
        <ele>341.41754150391</ele>
        <time>2014-12-03T15:38:48Z</time>
      </trkpt>
      <trkpt lat="43.42443" lon="6.04886">
        <ele>341.71337890625</ele>
        <time>2014-12-03T15:38:58Z</time>
      </trkpt>
      <trkpt lat="43.42444" lon="6.04891">
        <ele>341.8352355957</ele>
        <time>2014-12-03T15:39:04Z</time>
      </trkpt>
      <trkpt lat="43.42445" lon="6.04892">
        <ele>341.8232421875</ele>
        <time>2014-12-03T15:39:05Z</time>
      </trkpt>
      <trkpt lat="43.42445" lon="6.04893">
        <ele>341.90618896484</ele>
        <time>2014-12-03T15:39:06Z</time>
      </trkpt>
      <trkpt lat="43.42449" lon="6.04895">
        <ele>341.09539794922</ele>
        <time>2014-12-03T15:39:12Z</time>
      </trkpt>
      <trkpt lat="43.4245" lon="6.04896">
        <ele>341.02615356445</ele>
        <time>2014-12-03T15:39:13Z</time>
      </trkpt>
      <trkpt lat="43.4245" lon="6.04896">
        <ele>341.02899169922</ele>
        <time>2014-12-03T15:39:22Z</time>
      </trkpt>
      <trkpt lat="43.4245" lon="6.04895">
        <ele>341.00326538086</ele>
        <time>2014-12-03T15:39:35Z</time>
      </trkpt>
      <trkpt lat="43.42449" lon="6.04895">
        <ele>341.08966064453</ele>
        <time>2014-12-03T15:39:40Z</time>
      </trkpt>
      <trkpt lat="43.4245" lon="6.04896">
        <ele>340.99411010742</ele>
        <time>2014-12-03T15:39:46Z</time>
      </trkpt>
      <trkpt lat="43.42451" lon="6.04897">
        <ele>340.84991455078</ele>
        <time>2014-12-03T15:39:54Z</time>
      </trkpt>
      <trkpt lat="43.42453" lon="6.04898">
        <ele>340.39956665039</ele>
        <time>2014-12-03T15:39:56Z</time>
      </trkpt>
      <trkpt lat="43.42455" lon="6.049">
        <ele>340.19415283203</ele>
        <time>2014-12-03T15:39:58Z</time>
      </trkpt>
      <trkpt lat="43.42459" lon="6.04904">
        <ele>339.63912963867</ele>
        <time>2014-12-03T15:40:02Z</time>
      </trkpt>
      <trkpt lat="43.42459" lon="6.04906">
        <ele>339.60363769531</ele>
        <time>2014-12-03T15:40:03Z</time>
      </trkpt>
      <trkpt lat="43.4246" lon="6.04908">
        <ele>339.56243896484</ele>
        <time>2014-12-03T15:40:04Z</time>
      </trkpt>
      <trkpt lat="43.42461" lon="6.04911">
        <ele>339.68203735352</ele>
        <time>2014-12-03T15:40:07Z</time>
      </trkpt>
      <trkpt lat="43.42461" lon="6.04912">
        <ele>339.6442565918</ele>
        <time>2014-12-03T15:40:20Z</time>
      </trkpt>
      <trkpt lat="43.42461" lon="6.04913">
        <ele>339.71865844727</ele>
        <time>2014-12-03T15:40:21Z</time>
      </trkpt>
      <trkpt lat="43.4246" lon="6.04917">
        <ele>340.08779907227</ele>
        <time>2014-12-03T15:40:24Z</time>
      </trkpt>
      <trkpt lat="43.4246" lon="6.04919">
        <ele>340.12518310547</ele>
        <time>2014-12-03T15:40:25Z</time>
      </trkpt>
      <trkpt lat="43.4246" lon="6.0492">
        <ele>340.08642578125</ele>
        <time>2014-12-03T15:40:26Z</time>
      </trkpt>
      <trkpt lat="43.42459" lon="6.04924">
        <ele>340.06597900391</ele>
        <time>2014-12-03T15:40:28Z</time>
      </trkpt>
      <trkpt lat="43.4246" lon="6.04925">
        <ele>339.96090698242</ele>
        <time>2014-12-03T15:40:30Z</time>
      </trkpt>
      <trkpt lat="43.42459" lon="6.04929">
        <ele>340.06707763672</ele>
        <time>2014-12-03T15:40:36Z</time>
      </trkpt>
      <trkpt lat="43.4246" lon="6.04933">
        <ele>339.72048950195</ele>
        <time>2014-12-03T15:40:45Z</time>
      </trkpt>
      <trkpt lat="43.42463" lon="6.04935">
        <ele>339.13507080078</ele>
        <time>2014-12-03T15:40:53Z</time>
      </trkpt>
      <trkpt lat="43.42464" lon="6.04936">
        <ele>338.88717651367</ele>
        <time>2014-12-03T15:41:01Z</time>
      </trkpt>
      <trkpt lat="43.42467" lon="6.04942">
        <ele>338.23135375977</ele>
        <time>2014-12-03T15:41:08Z</time>
      </trkpt>
      <trkpt lat="43.42471" lon="6.04952">
        <ele>337.50915527344</ele>
        <time>2014-12-03T15:41:13Z</time>
      </trkpt>
      <trkpt lat="43.42471" lon="6.04954">
        <ele>337.36315917969</ele>
        <time>2014-12-03T15:41:14Z</time>
      </trkpt>
      <trkpt lat="43.42477" lon="6.04959">
        <ele>336.44021606445</ele>
        <time>2014-12-03T15:41:17Z</time>
      </trkpt>
      <trkpt lat="43.42478" lon="6.04962">
        <ele>336.25827026367</ele>
        <time>2014-12-03T15:41:18Z</time>
      </trkpt>
      <trkpt lat="43.42479" lon="6.04969">
        <ele>336.1755065918</ele>
        <time>2014-12-03T15:41:21Z</time>
      </trkpt>
      <trkpt lat="43.42482" lon="6.04973">
        <ele>335.76049804688</ele>
        <time>2014-12-03T15:41:23Z</time>
      </trkpt>
      <trkpt lat="43.42483" lon="6.04975">
        <ele>335.56481933594</ele>
        <time>2014-12-03T15:41:24Z</time>
      </trkpt>
      <trkpt lat="43.42486" lon="6.04979">
        <ele>335.24420166016</ele>
        <time>2014-12-03T15:41:27Z</time>
      </trkpt>
      <trkpt lat="43.42486" lon="6.04979">
        <ele>335.24499511719</ele>
        <time>2014-12-03T15:41:28Z</time>
      </trkpt>
      <trkpt lat="43.42487" lon="6.04979">
        <ele>335.10647583008</ele>
        <time>2014-12-03T15:41:30Z</time>
      </trkpt>
      <trkpt lat="43.42488" lon="6.04981">
        <ele>335.02328491211</ele>
        <time>2014-12-03T15:41:31Z</time>
      </trkpt>
      <trkpt lat="43.42489" lon="6.04984">
        <ele>334.86840820312</ele>
        <time>2014-12-03T15:41:33Z</time>
      </trkpt>
      <trkpt lat="43.4249" lon="6.04987">
        <ele>334.77447509766</ele>
        <time>2014-12-03T15:41:35Z</time>
      </trkpt>
      <trkpt lat="43.42496" lon="6.04992">
        <ele>334.18795776367</ele>
        <time>2014-12-03T15:41:39Z</time>
      </trkpt>
      <trkpt lat="43.42503" lon="6.04998">
        <ele>333.36889648438</ele>
        <time>2014-12-03T15:41:43Z</time>
      </trkpt>
      <trkpt lat="43.42506" lon="6.05007">
        <ele>331.84048461914</ele>
        <time>2014-12-03T15:41:46Z</time>
      </trkpt>
      <trkpt lat="43.42511" lon="6.05014">
        <ele>330.17602539062</ele>
        <time>2014-12-03T15:41:49Z</time>
      </trkpt>
      <trkpt lat="43.42511" lon="6.05017">
        <ele>329.81088256836</ele>
        <time>2014-12-03T15:41:50Z</time>
      </trkpt>
      <trkpt lat="43.42512" lon="6.05023">
        <ele>328.89135742188</ele>
        <time>2014-12-03T15:41:52Z</time>
      </trkpt>
      <trkpt lat="43.4251" lon="6.05033">
        <ele>328.33181762695</ele>
        <time>2014-12-03T15:41:56Z</time>
      </trkpt>
      <trkpt lat="43.4251" lon="6.0504">
        <ele>327.55764770508</ele>
        <time>2014-12-03T15:41:59Z</time>
      </trkpt>
      <trkpt lat="43.42512" lon="6.05043">
        <ele>326.89727783203</ele>
        <time>2014-12-03T15:42:00Z</time>
      </trkpt>
      <trkpt lat="43.42517" lon="6.0505">
        <ele>325.12521362305</ele>
        <time>2014-12-03T15:42:03Z</time>
      </trkpt>
      <trkpt lat="43.42519" lon="6.05052">
        <ele>324.67919921875</ele>
        <time>2014-12-03T15:42:08Z</time>
      </trkpt>
      <trkpt lat="43.42519" lon="6.05052">
        <ele>324.67456054688</ele>
        <time>2014-12-03T15:42:10Z</time>
      </trkpt>
      <trkpt lat="43.42519" lon="6.05052">
        <ele>324.64532470703</ele>
        <time>2014-12-03T15:42:17Z</time>
      </trkpt>
      <trkpt lat="43.42519" lon="6.05052">
        <ele>324.56973266602</ele>
        <time>2014-12-03T15:42:26Z</time>
      </trkpt>
      <trkpt lat="43.42519" lon="6.05052">
        <ele>324.57434082031</ele>
        <time>2014-12-03T15:42:33Z</time>
      </trkpt>
      <trkpt lat="43.42519" lon="6.05051">
        <ele>324.60665893555</ele>
        <time>2014-12-03T15:44:16Z</time>
      </trkpt>
      <trkpt lat="43.42519" lon="6.05052">
        <ele>324.69311523438</ele>
        <time>2014-12-03T15:44:42Z</time>
      </trkpt>
      <trkpt lat="43.42519" lon="6.05053">
        <ele>324.64672851562</ele>
        <time>2014-12-03T15:44:44Z</time>
      </trkpt>
      <trkpt lat="43.42519" lon="6.05053">
        <ele>324.60034179688</ele>
        <time>2014-12-03T15:44:51Z</time>
      </trkpt>
      <trkpt lat="43.42518" lon="6.05054">
        <ele>324.62454223633</ele>
        <time>2014-12-03T15:44:55Z</time>
      </trkpt>
      <trkpt lat="43.42517" lon="6.05055">
        <ele>324.59750366211</ele>
        <time>2014-12-03T15:45:00Z</time>
      </trkpt>
      <trkpt lat="43.42517" lon="6.05056">
        <ele>324.51342773438</ele>
        <time>2014-12-03T15:45:08Z</time>
      </trkpt>
      <trkpt lat="43.42517" lon="6.05064">
        <ele>323.93560791016</ele>
        <time>2014-12-03T15:45:15Z</time>
      </trkpt>
      <trkpt lat="43.42517" lon="6.0507">
        <ele>323.17782592773</ele>
        <time>2014-12-03T15:45:18Z</time>
      </trkpt>
      <trkpt lat="43.42517" lon="6.05075">
        <ele>322.74865722656</ele>
        <time>2014-12-03T15:45:20Z</time>
      </trkpt>
      <trkpt lat="43.42516" lon="6.05077">
        <ele>322.64520263672</ele>
        <time>2014-12-03T15:45:21Z</time>
      </trkpt>
      <trkpt lat="43.4251" lon="6.05084">
        <ele>323.04870605469</ele>
        <time>2014-12-03T15:45:25Z</time>
      </trkpt>
      <trkpt lat="43.42506" lon="6.05085">
        <ele>323.66204833984</ele>
        <time>2014-12-03T15:45:27Z</time>
      </trkpt>
      <trkpt lat="43.42497" lon="6.05086">
        <ele>324.61825561523</ele>
        <time>2014-12-03T15:45:30Z</time>
      </trkpt>
      <trkpt lat="43.42494" lon="6.05086">
        <ele>324.60107421875</ele>
        <time>2014-12-03T15:45:31Z</time>
      </trkpt>
      <trkpt lat="43.42486" lon="6.05087">
        <ele>324.35150146484</ele>
        <time>2014-12-03T15:45:34Z</time>
      </trkpt>
      <trkpt lat="43.42478" lon="6.0509">
        <ele>323.73751831055</ele>
        <time>2014-12-03T15:45:37Z</time>
      </trkpt>
      <trkpt lat="43.42474" lon="6.05093">
        <ele>323.12774658203</ele>
        <time>2014-12-03T15:45:39Z</time>
      </trkpt>
      <trkpt lat="43.42472" lon="6.05096">
        <ele>322.45770263672</ele>
        <time>2014-12-03T15:45:41Z</time>
      </trkpt>
      <trkpt lat="43.4247" lon="6.05097">
        <ele>322.13629150391</ele>
        <time>2014-12-03T15:45:42Z</time>
      </trkpt>
      <trkpt lat="43.42466" lon="6.05102">
        <ele>321.09963989258</ele>
        <time>2014-12-03T15:45:45Z</time>
      </trkpt>
      <trkpt lat="43.42461" lon="6.05105">
        <ele>320.40325927734</ele>
        <time>2014-12-03T15:45:48Z</time>
      </trkpt>
      <trkpt lat="43.42458" lon="6.05109">
        <ele>319.34692382812</ele>
        <time>2014-12-03T15:45:51Z</time>
      </trkpt>
      <trkpt lat="43.42456" lon="6.05113">
        <ele>318.50506591797</ele>
        <time>2014-12-03T15:45:53Z</time>
      </trkpt>
      <trkpt lat="43.42453" lon="6.05116">
        <ele>317.62606811523</ele>
        <time>2014-12-03T15:45:55Z</time>
      </trkpt>
      <trkpt lat="43.4245" lon="6.05121">
        <ele>316.52850341797</ele>
        <time>2014-12-03T15:45:57Z</time>
      </trkpt>
      <trkpt lat="43.42447" lon="6.05125">
        <ele>315.38949584961</ele>
        <time>2014-12-03T15:45:59Z</time>
      </trkpt>
      <trkpt lat="43.42445" lon="6.05127">
        <ele>314.81118774414</ele>
        <time>2014-12-03T15:46:00Z</time>
      </trkpt>
      <trkpt lat="43.42443" lon="6.0513">
        <ele>314.1882019043</ele>
        <time>2014-12-03T15:46:01Z</time>
      </trkpt>
      <trkpt lat="43.4244" lon="6.05134">
        <ele>312.95147705078</ele>
        <time>2014-12-03T15:46:03Z</time>
      </trkpt>
      <trkpt lat="43.42437" lon="6.05138">
        <ele>311.80911254883</ele>
        <time>2014-12-03T15:46:05Z</time>
      </trkpt>
      <trkpt lat="43.42433" lon="6.05141">
        <ele>310.83221435547</ele>
        <time>2014-12-03T15:46:07Z</time>
      </trkpt>
      <trkpt lat="43.4243" lon="6.05142">
        <ele>310.32312011719</ele>
        <time>2014-12-03T15:46:09Z</time>
      </trkpt>
      <trkpt lat="43.42426" lon="6.05144">
        <ele>309.63916015625</ele>
        <time>2014-12-03T15:46:12Z</time>
      </trkpt>
      <trkpt lat="43.42416" lon="6.05144">
        <ele>308.77645874023</ele>
        <time>2014-12-03T15:46:19Z</time>
      </trkpt>
      <trkpt lat="43.42414" lon="6.05145">
        <ele>308.56243896484</ele>
        <time>2014-12-03T15:46:20Z</time>
      </trkpt>
      <trkpt lat="43.42413" lon="6.05145">
        <ele>308.28549194336</ele>
        <time>2014-12-03T15:46:21Z</time>
      </trkpt>
      <trkpt lat="43.42408" lon="6.05146">
        <ele>307.44207763672</ele>
        <time>2014-12-03T15:46:23Z</time>
      </trkpt>
      <trkpt lat="43.42404" lon="6.05147">
        <ele>306.40982055664</ele>
        <time>2014-12-03T15:46:25Z</time>
      </trkpt>
      <trkpt lat="43.424" lon="6.0515">
        <ele>305.07543945312</ele>
        <time>2014-12-03T15:46:27Z</time>
      </trkpt>
      <trkpt lat="43.42396" lon="6.05155">
        <ele>303.41375732422</ele>
        <time>2014-12-03T15:46:29Z</time>
      </trkpt>
      <trkpt lat="43.42395" lon="6.05157">
        <ele>302.78433227539</ele>
        <time>2014-12-03T15:46:30Z</time>
      </trkpt>
      <trkpt lat="43.42395" lon="6.05158">
        <ele>302.49478149414</ele>
        <time>2014-12-03T15:46:31Z</time>
      </trkpt>
      <trkpt lat="43.42395" lon="6.05159">
        <ele>302.01641845703</ele>
        <time>2014-12-03T15:46:35Z</time>
      </trkpt>
      <trkpt lat="43.42395" lon="6.05159">
        <ele>302.11712646484</ele>
        <time>2014-12-03T15:46:45Z</time>
      </trkpt>
      <trkpt lat="43.42395" lon="6.05159">
        <ele>302.10455322266</ele>
        <time>2014-12-03T15:46:49Z</time>
      </trkpt>
      <trkpt lat="43.42395" lon="6.05159">
        <ele>302.09194946289</ele>
        <time>2014-12-03T15:46:52Z</time>
      </trkpt>
      <trkpt lat="43.42395" lon="6.05159">
        <ele>302.0290222168</ele>
        <time>2014-12-03T15:47:25Z</time>
      </trkpt>
      <trkpt lat="43.42395" lon="6.05159">
        <ele>302.0290222168</ele>
        <time>2014-12-03T15:47:37Z</time>
      </trkpt>
      <trkpt lat="43.42395" lon="6.05159">
        <ele>302.0290222168</ele>
        <time>2014-12-03T15:48:23Z</time>
      </trkpt>
      <trkpt lat="43.42394" lon="6.05159">
        <ele>302.05419921875</ele>
        <time>2014-12-03T15:49:09Z</time>
      </trkpt>
      <trkpt lat="43.42394" lon="6.05159">
        <ele>302.01641845703</ele>
        <time>2014-12-03T15:49:21Z</time>
      </trkpt>
      <trkpt lat="43.42394" lon="6.05159">
        <ele>301.92831420898</ele>
        <time>2014-12-03T15:49:33Z</time>
      </trkpt>
      <trkpt lat="43.42394" lon="6.05159">
        <ele>301.92831420898</ele>
        <time>2014-12-03T15:49:40Z</time>
      </trkpt>
      <trkpt lat="43.42394" lon="6.0516">
        <ele>301.80242919922</ele>
        <time>2014-12-03T15:49:56Z</time>
      </trkpt>
      <trkpt lat="43.42394" lon="6.05162">
        <ele>301.32406616211</ele>
        <time>2014-12-03T15:50:09Z</time>
      </trkpt>
      <trkpt lat="43.42397" lon="6.05164">
        <ele>301.04711914062</ele>
        <time>2014-12-03T15:50:13Z</time>
      </trkpt>
      <trkpt lat="43.42398" lon="6.05165">
        <ele>300.83309936523</ele>
        <time>2014-12-03T15:50:15Z</time>
      </trkpt>
      <trkpt lat="43.42398" lon="6.05168">
        <ele>300.2395324707</ele>
        <time>2014-12-03T15:50:21Z</time>
      </trkpt>
      <trkpt lat="43.42398" lon="6.05168">
        <ele>300.20693969727</ele>
        <time>2014-12-03T15:50:30Z</time>
      </trkpt>
      <trkpt lat="43.42398" lon="6.05168">
        <ele>300.21780395508</ele>
        <time>2014-12-03T15:50:35Z</time>
      </trkpt>
      <trkpt lat="43.42398" lon="6.05169">
        <ele>300.07055664062</ele>
        <time>2014-12-03T15:50:48Z</time>
      </trkpt>
      <trkpt lat="43.42398" lon="6.05174">
        <ele>298.83441162109</ele>
        <time>2014-12-03T15:50:54Z</time>
      </trkpt>
      <trkpt lat="43.42397" lon="6.05176">
        <ele>298.19030761719</ele>
        <time>2014-12-03T15:50:55Z</time>
      </trkpt>
      <trkpt lat="43.42386" lon="6.05188">
        <ele>294.41146850586</ele>
        <time>2014-12-03T15:50:59Z</time>
      </trkpt>
      <trkpt lat="43.42385" lon="6.05189">
        <ele>294.16220092773</ele>
        <time>2014-12-03T15:51:00Z</time>
      </trkpt>
      <trkpt lat="43.42383" lon="6.05189">
        <ele>293.88528442383</ele>
        <time>2014-12-03T15:51:02Z</time>
      </trkpt>
      <trkpt lat="43.42382" lon="6.05189">
        <ele>293.74694824219</ele>
        <time>2014-12-03T15:51:06Z</time>
      </trkpt>
      <trkpt lat="43.42381" lon="6.05189">
        <ele>293.62985229492</ele>
        <time>2014-12-03T15:51:11Z</time>
      </trkpt>
      <trkpt lat="43.42371" lon="6.05191">
        <ele>292.35549926758</ele>
        <time>2014-12-03T15:51:15Z</time>
      </trkpt>
      <trkpt lat="43.42363" lon="6.05196">
        <ele>290.55435180664</ele>
        <time>2014-12-03T15:51:18Z</time>
      </trkpt>
      <trkpt lat="43.42362" lon="6.05199">
        <ele>289.89346313477</ele>
        <time>2014-12-03T15:51:19Z</time>
      </trkpt>
      <trkpt lat="43.42357" lon="6.05202">
        <ele>288.99822998047</ele>
        <time>2014-12-03T15:51:22Z</time>
      </trkpt>
      <trkpt lat="43.42349" lon="6.05202">
        <ele>288.32159423828</ele>
        <time>2014-12-03T15:51:26Z</time>
      </trkpt>
      <trkpt lat="43.42345" lon="6.05201">
        <ele>288.09057617188</ele>
        <time>2014-12-03T15:51:28Z</time>
      </trkpt>
      <trkpt lat="43.4234" lon="6.05203">
        <ele>287.31509399414</ele>
        <time>2014-12-03T15:51:30Z</time>
      </trkpt>
      <trkpt lat="43.4233" lon="6.05201">
        <ele>286.76324462891</ele>
        <time>2014-12-03T15:51:33Z</time>
      </trkpt>
      <trkpt lat="43.42318" lon="6.05207">
        <ele>285.20376586914</ele>
        <time>2014-12-03T15:51:37Z</time>
      </trkpt>
      <trkpt lat="43.42311" lon="6.05206">
        <ele>284.78527832031</ele>
        <time>2014-12-03T15:51:39Z</time>
      </trkpt>
      <trkpt lat="43.423" lon="6.052">
        <ele>284.57931518555</ele>
        <time>2014-12-03T15:51:44Z</time>
      </trkpt>
      <trkpt lat="43.42288" lon="6.05195">
        <ele>283.94189453125</ele>
        <time>2014-12-03T15:51:49Z</time>
      </trkpt>
      <trkpt lat="43.42286" lon="6.05197">
        <ele>283.64874267578</ele>
        <time>2014-12-03T15:51:50Z</time>
      </trkpt>
      <trkpt lat="43.42278" lon="6.05204">
        <ele>282.53329467773</ele>
        <time>2014-12-03T15:51:54Z</time>
      </trkpt>
      <trkpt lat="43.42271" lon="6.05209">
        <ele>281.88473510742</ele>
        <time>2014-12-03T15:51:56Z</time>
      </trkpt>
      <trkpt lat="43.42265" lon="6.05211">
        <ele>281.39013671875</ele>
        <time>2014-12-03T15:51:58Z</time>
      </trkpt>
      <trkpt lat="43.42262" lon="6.05211">
        <ele>281.21026611328</ele>
        <time>2014-12-03T15:51:59Z</time>
      </trkpt>
      <trkpt lat="43.42252" lon="6.05211">
        <ele>280.62036132812</ele>
        <time>2014-12-03T15:52:03Z</time>
      </trkpt>
      <trkpt lat="43.42248" lon="6.05211">
        <ele>280.27453613281</ele>
        <time>2014-12-03T15:52:05Z</time>
      </trkpt>
      <trkpt lat="43.42243" lon="6.05207">
        <ele>279.89721679688</ele>
        <time>2014-12-03T15:52:07Z</time>
      </trkpt>
      <trkpt lat="43.42237" lon="6.05202">
        <ele>279.35491943359</ele>
        <time>2014-12-03T15:52:10Z</time>
      </trkpt>
      <trkpt lat="43.42234" lon="6.05198">
        <ele>279.06884765625</ele>
        <time>2014-12-03T15:52:12Z</time>
      </trkpt>
      <trkpt lat="43.42227" lon="6.05192">
        <ele>278.33471679688</ele>
        <time>2014-12-03T15:52:16Z</time>
      </trkpt>
      <trkpt lat="43.42217" lon="6.05186">
        <ele>277.29144287109</ele>
        <time>2014-12-03T15:52:21Z</time>
      </trkpt>
      <trkpt lat="43.42212" lon="6.05182">
        <ele>276.62725830078</ele>
        <time>2014-12-03T15:52:25Z</time>
      </trkpt>
      <trkpt lat="43.42205" lon="6.05177">
        <ele>275.7825012207</ele>
        <time>2014-12-03T15:52:30Z</time>
      </trkpt>
      <trkpt lat="43.42201" lon="6.05175">
        <ele>275.30194091797</ele>
        <time>2014-12-03T15:52:36Z</time>
      </trkpt>
      <trkpt lat="43.42198" lon="6.05175">
        <ele>274.99673461914</ele>
        <time>2014-12-03T15:52:44Z</time>
      </trkpt>
      <trkpt lat="43.42195" lon="6.05174">
        <ele>274.58456420898</ele>
        <time>2014-12-03T15:52:46Z</time>
      </trkpt>
      <trkpt lat="43.42187" lon="6.05175">
        <ele>273.72894287109</ele>
        <time>2014-12-03T15:52:48Z</time>
      </trkpt>
      <trkpt lat="43.42183" lon="6.05175">
        <ele>273.22079467773</ele>
        <time>2014-12-03T15:52:49Z</time>
      </trkpt>
      <trkpt lat="43.42172" lon="6.05171">
        <ele>271.80288696289</ele>
        <time>2014-12-03T15:52:52Z</time>
      </trkpt>
      <trkpt lat="43.42168" lon="6.05169">
        <ele>271.32070922852</ele>
        <time>2014-12-03T15:52:53Z</time>
      </trkpt>
      <trkpt lat="43.42151" lon="6.05152">
        <ele>270.31451416016</ele>
        <time>2014-12-03T15:52:59Z</time>
      </trkpt>
      <trkpt lat="43.42149" lon="6.05149">
        <ele>270.3122253418</ele>
        <time>2014-12-03T15:53:00Z</time>
      </trkpt>
      <trkpt lat="43.42142" lon="6.05139">
        <ele>270.33740234375</ele>
        <time>2014-12-03T15:53:03Z</time>
      </trkpt>
      <trkpt lat="43.42139" lon="6.05133">
        <ele>270.44784545898</ele>
        <time>2014-12-03T15:53:05Z</time>
      </trkpt>
      <trkpt lat="43.42138" lon="6.05131">
        <ele>270.49478149414</ele>
        <time>2014-12-03T15:53:07Z</time>
      </trkpt>
      <trkpt lat="43.42137" lon="6.05129">
        <ele>270.56344604492</ele>
        <time>2014-12-03T15:53:10Z</time>
      </trkpt>
      <trkpt lat="43.42136" lon="6.05128">
        <ele>270.57373046875</ele>
        <time>2014-12-03T15:53:16Z</time>
      </trkpt>
      <trkpt lat="43.42137" lon="6.05127">
        <ele>270.78945922852</ele>
        <time>2014-12-03T15:53:22Z</time>
      </trkpt>
      <trkpt lat="43.42137" lon="6.05126">
        <ele>270.83581542969</ele>
        <time>2014-12-03T15:53:37Z</time>
      </trkpt>
      <trkpt lat="43.42137" lon="6.05126">
        <ele>270.83581542969</ele>
        <time>2014-12-03T15:53:41Z</time>
      </trkpt>
      <trkpt lat="43.42137" lon="6.05126">
        <ele>270.8518371582</ele>
        <time>2014-12-03T15:54:17Z</time>
      </trkpt>
      <trkpt lat="43.42137" lon="6.05126">
        <ele>270.90960693359</ele>
        <time>2014-12-03T15:54:42Z</time>
      </trkpt>
      <trkpt lat="43.42137" lon="6.05126">
        <ele>270.91363525391</ele>
        <time>2014-12-03T15:54:47Z</time>
      </trkpt>
      <trkpt lat="43.42137" lon="6.05125">
        <ele>270.92562866211</ele>
        <time>2014-12-03T15:55:02Z</time>
      </trkpt>
      <trkpt lat="43.42136" lon="6.05126">
        <ele>270.79403686523</ele>
        <time>2014-12-03T15:55:15Z</time>
      </trkpt>
      <trkpt lat="43.42131" lon="6.05124">
        <ele>270.25158691406</ele>
        <time>2014-12-03T15:55:20Z</time>
      </trkpt>
      <trkpt lat="43.42119" lon="6.05119">
        <ele>269.30114746094</ele>
        <time>2014-12-03T15:55:24Z</time>
      </trkpt>
      <trkpt lat="43.42094" lon="6.05117">
        <ele>266.41207885742</ele>
        <time>2014-12-03T15:55:29Z</time>
      </trkpt>
      <trkpt lat="43.42087" lon="6.05117">
        <ele>265.6579284668</ele>
        <time>2014-12-03T15:55:30Z</time>
      </trkpt>
      <trkpt lat="43.42067" lon="6.05118">
        <ele>264.80099487305</ele>
        <time>2014-12-03T15:55:33Z</time>
      </trkpt>
      <trkpt lat="43.42059" lon="6.05119">
        <ele>264.55963134766</ele>
        <time>2014-12-03T15:55:34Z</time>
      </trkpt>
      <trkpt lat="43.42029" lon="6.05126">
        <ele>263.43472290039</ele>
        <time>2014-12-03T15:55:38Z</time>
      </trkpt>
      <trkpt lat="43.42014" lon="6.0513">
        <ele>262.88342285156</ele>
        <time>2014-12-03T15:55:40Z</time>
      </trkpt>
      <trkpt lat="43.41993" lon="6.05135">
        <ele>262.17007446289</ele>
        <time>2014-12-03T15:55:43Z</time>
      </trkpt>
      <trkpt lat="43.41978" lon="6.05138">
        <ele>261.71234130859</ele>
        <time>2014-12-03T15:55:45Z</time>
      </trkpt>
      <trkpt lat="43.4197" lon="6.0514">
        <ele>261.44290161133</ele>
        <time>2014-12-03T15:55:46Z</time>
      </trkpt>
      <trkpt lat="43.41962" lon="6.05143">
        <ele>261.16845703125</ele>
        <time>2014-12-03T15:55:47Z</time>
      </trkpt>
      <trkpt lat="43.41945" lon="6.05152">
        <ele>260.60104370117</ele>
        <time>2014-12-03T15:55:49Z</time>
      </trkpt>
      <trkpt lat="43.41909" lon="6.05166">
        <ele>259.40618896484</ele>
        <time>2014-12-03T15:55:53Z</time>
      </trkpt>
      <trkpt lat="43.419" lon="6.05168">
        <ele>258.5891418457</ele>
        <time>2014-12-03T15:55:54Z</time>
      </trkpt>
      <trkpt lat="43.41892" lon="6.05171">
        <ele>257.83728027344</ele>
        <time>2014-12-03T15:55:55Z</time>
      </trkpt>
      <trkpt lat="43.41869" lon="6.05178">
        <ele>255.83796691894</ele>
        <time>2014-12-03T15:55:58Z</time>
      </trkpt>
      <trkpt lat="43.41861" lon="6.0518">
        <ele>255.10125732422</ele>
        <time>2014-12-03T15:55:59Z</time>
      </trkpt>
      <trkpt lat="43.41852" lon="6.05182">
        <ele>254.32655334473</ele>
        <time>2014-12-03T15:56:00Z</time>
      </trkpt>
      <trkpt lat="43.41843" lon="6.05183">
        <ele>253.59683227539</ele>
        <time>2014-12-03T15:56:01Z</time>
      </trkpt>
      <trkpt lat="43.41808" lon="6.05181">
        <ele>249.73327636719</ele>
        <time>2014-12-03T15:56:05Z</time>
      </trkpt>
      <trkpt lat="43.41788" lon="6.0518">
        <ele>247.45475769043</ele>
        <time>2014-12-03T15:56:07Z</time>
      </trkpt>
      <trkpt lat="43.4177" lon="6.05179">
        <ele>245.27523803711</ele>
        <time>2014-12-03T15:56:09Z</time>
      </trkpt>
      <trkpt lat="43.41761" lon="6.05178">
        <ele>244.18632507324</ele>
        <time>2014-12-03T15:56:10Z</time>
      </trkpt>
      <trkpt lat="43.41748" lon="6.05175">
        <ele>242.75856018066</ele>
        <time>2014-12-03T15:56:12Z</time>
      </trkpt>
      <trkpt lat="43.41743" lon="6.05172">
        <ele>242.49992370606</ele>
        <time>2014-12-03T15:56:13Z</time>
      </trkpt>
      <trkpt lat="43.41739" lon="6.05162">
        <ele>242.42446899414</ele>
        <time>2014-12-03T15:56:15Z</time>
      </trkpt>
      <trkpt lat="43.41738" lon="6.0514">
        <ele>242.87640380859</ele>
        <time>2014-12-03T15:56:18Z</time>
      </trkpt>
      <trkpt lat="43.41738" lon="6.05133">
        <ele>243.04753112793</ele>
        <time>2014-12-03T15:56:19Z</time>
      </trkpt>
      <trkpt lat="43.41736" lon="6.05109">
        <ele>243.41313171387</ele>
        <time>2014-12-03T15:56:23Z</time>
      </trkpt>
      <trkpt lat="43.41732" lon="6.05107">
        <ele>243.23501586914</ele>
        <time>2014-12-03T15:56:24Z</time>
      </trkpt>
      <trkpt lat="43.41728" lon="6.05107">
        <ele>242.91377258301</ele>
        <time>2014-12-03T15:56:25Z</time>
      </trkpt>
      <trkpt lat="43.41723" lon="6.05109">
        <ele>242.52275085449</ele>
        <time>2014-12-03T15:56:26Z</time>
      </trkpt>
      <trkpt lat="43.41718" lon="6.05113">
        <ele>242.12333679199</ele>
        <time>2014-12-03T15:56:27Z</time>
      </trkpt>
      <trkpt lat="43.41706" lon="6.05121">
        <ele>241.20631408691</ele>
        <time>2014-12-03T15:56:29Z</time>
      </trkpt>
      <trkpt lat="43.417" lon="6.05125">
        <ele>240.71836853027</ele>
        <time>2014-12-03T15:56:30Z</time>
      </trkpt>
      <trkpt lat="43.41695" lon="6.0513">
        <ele>240.26150512695</ele>
        <time>2014-12-03T15:56:31Z</time>
      </trkpt>
      <trkpt lat="43.41671" lon="6.05159">
        <ele>238.33290100098</ele>
        <time>2014-12-03T15:56:36Z</time>
      </trkpt>
      <trkpt lat="43.41659" lon="6.05165">
        <ele>237.82844543457</ele>
        <time>2014-12-03T15:56:38Z</time>
      </trkpt>
      <trkpt lat="43.41638" lon="6.05165">
        <ele>237.32833862305</ele>
        <time>2014-12-03T15:56:41Z</time>
      </trkpt>
      <trkpt lat="43.4163" lon="6.05164">
        <ele>237.14465332031</ele>
        <time>2014-12-03T15:56:42Z</time>
      </trkpt>
      <trkpt lat="43.41622" lon="6.05163">
        <ele>236.97128295898</ele>
        <time>2014-12-03T15:56:43Z</time>
      </trkpt>
      <trkpt lat="43.41599" lon="6.05161">
        <ele>236.44027709961</ele>
        <time>2014-12-03T15:56:46Z</time>
      </trkpt>
      <trkpt lat="43.41577" lon="6.05158">
        <ele>235.88079833984</ele>
        <time>2014-12-03T15:56:49Z</time>
      </trkpt>
      <trkpt lat="43.41569" lon="6.05156">
        <ele>235.63284301758</ele>
        <time>2014-12-03T15:56:50Z</time>
      </trkpt>
      <trkpt lat="43.41562" lon="6.05155">
        <ele>235.40130615234</ele>
        <time>2014-12-03T15:56:51Z</time>
      </trkpt>
      <trkpt lat="43.41547" lon="6.05153">
        <ele>234.91020202637</ele>
        <time>2014-12-03T15:56:53Z</time>
      </trkpt>
      <trkpt lat="43.4153" lon="6.05154">
        <ele>234.3391418457</ele>
        <time>2014-12-03T15:56:55Z</time>
      </trkpt>
      <trkpt lat="43.41523" lon="6.05155">
        <ele>234.05081176758</ele>
        <time>2014-12-03T15:56:56Z</time>
      </trkpt>
      <trkpt lat="43.41502" lon="6.05161">
        <ele>233.2287902832</ele>
        <time>2014-12-03T15:56:59Z</time>
      </trkpt>
      <trkpt lat="43.41498" lon="6.05163">
        <ele>232.98471069336</ele>
        <time>2014-12-03T15:57:00Z</time>
      </trkpt>
      <trkpt lat="43.41492" lon="6.0517">
        <ele>232.58544921875</ele>
        <time>2014-12-03T15:57:03Z</time>
      </trkpt>
      <trkpt lat="43.41492" lon="6.05173">
        <ele>232.52194213867</ele>
        <time>2014-12-03T15:57:04Z</time>
      </trkpt>
      <trkpt lat="43.41494" lon="6.05181">
        <ele>232.54083251953</ele>
        <time>2014-12-03T15:57:06Z</time>
      </trkpt>
      <trkpt lat="43.41496" lon="6.05185">
        <ele>232.58432006836</ele>
        <time>2014-12-03T15:57:07Z</time>
      </trkpt>
      <trkpt lat="43.41509" lon="6.05213">
        <ele>232.76689147949</ele>
        <time>2014-12-03T15:57:13Z</time>
      </trkpt>
      <trkpt lat="43.41512" lon="6.05218">
        <ele>232.80351257324</ele>
        <time>2014-12-03T15:57:14Z</time>
      </trkpt>
      <trkpt lat="43.41533" lon="6.05264">
        <ele>232.99691772461</ele>
        <time>2014-12-03T15:57:23Z</time>
      </trkpt>
      <trkpt lat="43.41537" lon="6.05276">
        <ele>233.00778198242</ele>
        <time>2014-12-03T15:57:25Z</time>
      </trkpt>
      <trkpt lat="43.41546" lon="6.05306">
        <ele>232.98089599609</ele>
        <time>2014-12-03T15:57:30Z</time>
      </trkpt>
      <trkpt lat="43.41553" lon="6.05331">
        <ele>232.94371032715</ele>
        <time>2014-12-03T15:57:34Z</time>
      </trkpt>
      <trkpt lat="43.41557" lon="6.05343">
        <ele>232.94943237305</ele>
        <time>2014-12-03T15:57:36Z</time>
      </trkpt>
      <trkpt lat="43.41572" lon="6.05378">
        <ele>233.05070495606</ele>
        <time>2014-12-03T15:57:42Z</time>
      </trkpt>
      <trkpt lat="43.41586" lon="6.0542">
        <ele>233.06901550293</ele>
        <time>2014-12-03T15:57:49Z</time>
      </trkpt>
      <trkpt lat="43.4159" lon="6.05432">
        <ele>233.06214904785</ele>
        <time>2014-12-03T15:57:51Z</time>
      </trkpt>
      <trkpt lat="43.41594" lon="6.05444">
        <ele>233.03982543945</ele>
        <time>2014-12-03T15:57:53Z</time>
      </trkpt>
      <trkpt lat="43.4161" lon="6.055">
        <ele>232.94320678711</ele>
        <time>2014-12-03T15:58:03Z</time>
      </trkpt>
      <trkpt lat="43.41621" lon="6.05542">
        <ele>233.09756469727</ele>
        <time>2014-12-03T15:58:11Z</time>
      </trkpt>
      <trkpt lat="43.41629" lon="6.05578">
        <ele>233.23878479004</ele>
        <time>2014-12-03T15:58:19Z</time>
      </trkpt>
      <trkpt lat="43.41636" lon="6.05616">
        <ele>233.14471435547</ele>
        <time>2014-12-03T15:58:26Z</time>
      </trkpt>
      <trkpt lat="43.41638" lon="6.05627">
        <ele>233.08920288086</ele>
        <time>2014-12-03T15:58:28Z</time>
      </trkpt>
      <trkpt lat="43.41641" lon="6.05653">
        <ele>232.91983032227</ele>
        <time>2014-12-03T15:58:33Z</time>
      </trkpt>
      <trkpt lat="43.41643" lon="6.05674">
        <ele>232.8525390625</ele>
        <time>2014-12-03T15:58:37Z</time>
      </trkpt>
      <trkpt lat="43.41646" lon="6.05729">
        <ele>233.01733398438</ele>
        <time>2014-12-03T15:58:48Z</time>
      </trkpt>
      <trkpt lat="43.41647" lon="6.05754">
        <ele>233.02464294434</ele>
        <time>2014-12-03T15:58:53Z</time>
      </trkpt>
      <trkpt lat="43.41647" lon="6.05774">
        <ele>232.98536682129</ele>
        <time>2014-12-03T15:58:57Z</time>
      </trkpt>
      <trkpt lat="43.41645" lon="6.0582">
        <ele>232.76742553711</ele>
        <time>2014-12-03T15:59:06Z</time>
      </trkpt>
      <trkpt lat="43.41642" lon="6.05866">
        <ele>232.54278564453</ele>
        <time>2014-12-03T15:59:15Z</time>
      </trkpt>
      <trkpt lat="43.41639" lon="6.05904">
        <ele>232.33679199219</ele>
        <time>2014-12-03T15:59:21Z</time>
      </trkpt>
      <trkpt lat="43.41633" lon="6.05952">
        <ele>231.99346923828</ele>
        <time>2014-12-03T15:59:28Z</time>
      </trkpt>
      <trkpt lat="43.41631" lon="6.05965">
        <ele>231.87902832031</ele>
        <time>2014-12-03T15:59:30Z</time>
      </trkpt>
      <trkpt lat="43.41626" lon="6.06003">
        <ele>231.54164123535</ele>
        <time>2014-12-03T15:59:36Z</time>
      </trkpt>
      <trkpt lat="43.41624" lon="6.06017">
        <ele>231.32321166992</ele>
        <time>2014-12-03T15:59:38Z</time>
      </trkpt>
      <trkpt lat="43.41621" lon="6.06039">
        <ele>231.02815246582</ele>
        <time>2014-12-03T15:59:41Z</time>
      </trkpt>
      <trkpt lat="43.41618" lon="6.06063">
        <ele>230.78350830078</ele>
        <time>2014-12-03T15:59:44Z</time>
      </trkpt>
      <trkpt lat="43.41618" lon="6.0607">
        <ele>230.72721862793</ele>
        <time>2014-12-03T15:59:45Z</time>
      </trkpt>
      <trkpt lat="43.41618" lon="6.06087">
        <ele>230.62138366699</ele>
        <time>2014-12-03T15:59:47Z</time>
      </trkpt>
      <trkpt lat="43.4162" lon="6.06102">
        <ele>230.65071105957</ele>
        <time>2014-12-03T15:59:49Z</time>
      </trkpt>
      <trkpt lat="43.41622" lon="6.06108">
        <ele>230.68388366699</ele>
        <time>2014-12-03T15:59:50Z</time>
      </trkpt>
      <trkpt lat="43.41626" lon="6.0612">
        <ele>230.8544921875</ele>
        <time>2014-12-03T15:59:52Z</time>
      </trkpt>
      <trkpt lat="43.41629" lon="6.06124">
        <ele>230.95256042481</ele>
        <time>2014-12-03T15:59:53Z</time>
      </trkpt>
      <trkpt lat="43.41631" lon="6.06128">
        <ele>231.0354309082</ele>
        <time>2014-12-03T15:59:54Z</time>
      </trkpt>
      <trkpt lat="43.41631" lon="6.06134">
        <ele>231.04417419434</ele>
        <time>2014-12-03T15:59:56Z</time>
      </trkpt>
      <trkpt lat="43.4163" lon="6.06137">
        <ele>230.96406555176</ele>
        <time>2014-12-03T15:59:57Z</time>
      </trkpt>
      <trkpt lat="43.41619" lon="6.06151">
        <ele>230.27326965332</ele>
        <time>2014-12-03T16:00:01Z</time>
      </trkpt>
      <trkpt lat="43.41616" lon="6.06155">
        <ele>230.07170104981</ele>
        <time>2014-12-03T16:00:02Z</time>
      </trkpt>
      <trkpt lat="43.41603" lon="6.0618">
        <ele>228.8458404541</ele>
        <time>2014-12-03T16:00:08Z</time>
      </trkpt>
      <trkpt lat="43.41601" lon="6.06192">
        <ele>228.45788574219</ele>
        <time>2014-12-03T16:00:11Z</time>
      </trkpt>
      <trkpt lat="43.41601" lon="6.06196">
        <ele>228.35488891602</ele>
        <time>2014-12-03T16:00:12Z</time>
      </trkpt>
      <trkpt lat="43.41601" lon="6.06201">
        <ele>228.25875854492</ele>
        <time>2014-12-03T16:00:14Z</time>
      </trkpt>
      <trkpt lat="43.41603" lon="6.06207">
        <ele>228.22557067871</ele>
        <time>2014-12-03T16:00:17Z</time>
      </trkpt>
      <trkpt lat="43.41608" lon="6.06211">
        <ele>228.42927551269</ele>
        <time>2014-12-03T16:00:19Z</time>
      </trkpt>
      <trkpt lat="43.41611" lon="6.06223">
        <ele>228.29995727539</ele>
        <time>2014-12-03T16:00:22Z</time>
      </trkpt>
      <trkpt lat="43.41606" lon="6.06243">
        <ele>227.53091430664</ele>
        <time>2014-12-03T16:00:26Z</time>
      </trkpt>
      <trkpt lat="43.41604" lon="6.06254">
        <ele>227.13388061523</ele>
        <time>2014-12-03T16:00:28Z</time>
      </trkpt>
      <trkpt lat="43.41602" lon="6.06261">
        <ele>226.76599121094</ele>
        <time>2014-12-03T16:00:30Z</time>
      </trkpt>
      <trkpt lat="43.41599" lon="6.06263">
        <ele>226.54455566406</ele>
        <time>2014-12-03T16:00:31Z</time>
      </trkpt>
      <trkpt lat="43.4159" lon="6.06273">
        <ele>225.61059570312</ele>
        <time>2014-12-03T16:00:34Z</time>
      </trkpt>
      <trkpt lat="43.41588" lon="6.06278">
        <ele>225.32763671875</ele>
        <time>2014-12-03T16:00:35Z</time>
      </trkpt>
      <trkpt lat="43.41586" lon="6.06307">
        <ele>224.17897033691</ele>
        <time>2014-12-03T16:00:39Z</time>
      </trkpt>
      <trkpt lat="43.41576" lon="6.0633">
        <ele>223.03950500488</ele>
        <time>2014-12-03T16:00:42Z</time>
      </trkpt>
      <trkpt lat="43.41563" lon="6.06353">
        <ele>222.45373535156</ele>
        <time>2014-12-03T16:00:45Z</time>
      </trkpt>
      <trkpt lat="43.41559" lon="6.06363">
        <ele>222.23858642578</ele>
        <time>2014-12-03T16:00:46Z</time>
      </trkpt>
      <trkpt lat="43.41555" lon="6.06385">
        <ele>221.8154296875</ele>
        <time>2014-12-03T16:00:48Z</time>
      </trkpt>
      <trkpt lat="43.4155" lon="6.06409">
        <ele>221.34017944336</ele>
        <time>2014-12-03T16:00:50Z</time>
      </trkpt>
      <trkpt lat="43.41549" lon="6.0642">
        <ele>221.13967895508</ele>
        <time>2014-12-03T16:00:51Z</time>
      </trkpt>
      <trkpt lat="43.41545" lon="6.06446">
        <ele>220.89842224121</ele>
        <time>2014-12-03T16:00:53Z</time>
      </trkpt>
      <trkpt lat="43.41546" lon="6.0647">
        <ele>220.75375366211</ele>
        <time>2014-12-03T16:00:55Z</time>
      </trkpt>
      <trkpt lat="43.41545" lon="6.0648">
        <ele>220.67791748047</ele>
        <time>2014-12-03T16:00:56Z</time>
      </trkpt>
      <trkpt lat="43.41543" lon="6.06488">
        <ele>220.59515380859</ele>
        <time>2014-12-03T16:00:57Z</time>
      </trkpt>
      <trkpt lat="43.41539" lon="6.06495">
        <ele>220.49530029297</ele>
        <time>2014-12-03T16:00:58Z</time>
      </trkpt>
      <trkpt lat="43.4153" lon="6.0651">
        <ele>220.28318786621</ele>
        <time>2014-12-03T16:01:00Z</time>
      </trkpt>
      <trkpt lat="43.41527" lon="6.0652">
        <ele>220.15921020508</ele>
        <time>2014-12-03T16:01:01Z</time>
      </trkpt>
      <trkpt lat="43.41524" lon="6.0653">
        <ele>220.03128051758</ele>
        <time>2014-12-03T16:01:02Z</time>
      </trkpt>
      <trkpt lat="43.4152" lon="6.06553">
        <ele>219.76676940918</ele>
        <time>2014-12-03T16:01:04Z</time>
      </trkpt>
      <trkpt lat="43.41516" lon="6.06576">
        <ele>219.47091674805</ele>
        <time>2014-12-03T16:01:06Z</time>
      </trkpt>
      <trkpt lat="43.41513" lon="6.06599">
        <ele>219.27563476562</ele>
        <time>2014-12-03T16:01:08Z</time>
      </trkpt>
      <trkpt lat="43.41507" lon="6.06634">
        <ele>219.10968017578</ele>
        <time>2014-12-03T16:01:11Z</time>
      </trkpt>
      <trkpt lat="43.41503" lon="6.06657">
        <ele>219.03712463379</ele>
        <time>2014-12-03T16:01:13Z</time>
      </trkpt>
      <trkpt lat="43.415" lon="6.06678">
        <ele>219.00347900391</ele>
        <time>2014-12-03T16:01:15Z</time>
      </trkpt>
      <trkpt lat="43.41496" lon="6.06746">
        <ele>219.05383300781</ele>
        <time>2014-12-03T16:01:21Z</time>
      </trkpt>
      <trkpt lat="43.41492" lon="6.06779">
        <ele>219.06494140625</ele>
        <time>2014-12-03T16:01:24Z</time>
      </trkpt>
      <trkpt lat="43.41484" lon="6.0682">
        <ele>219.03106689453</ele>
        <time>2014-12-03T16:01:28Z</time>
      </trkpt>
      <trkpt lat="43.41481" lon="6.06828">
        <ele>219.01399230957</ele>
        <time>2014-12-03T16:01:29Z</time>
      </trkpt>
      <trkpt lat="43.41477" lon="6.06844">
        <ele>218.84158325195</ele>
        <time>2014-12-03T16:01:31Z</time>
      </trkpt>
      <trkpt lat="43.41476" lon="6.06851">
        <ele>218.72604370117</ele>
        <time>2014-12-03T16:01:32Z</time>
      </trkpt>
      <trkpt lat="43.41474" lon="6.06864">
        <ele>218.51223754883</ele>
        <time>2014-12-03T16:01:34Z</time>
      </trkpt>
      <trkpt lat="43.41476" lon="6.06877">
        <ele>218.32629394531</ele>
        <time>2014-12-03T16:01:36Z</time>
      </trkpt>
      <trkpt lat="43.41476" lon="6.06889">
        <ele>218.13909912109</ele>
        <time>2014-12-03T16:01:39Z</time>
      </trkpt>
      <trkpt lat="43.41478" lon="6.06905">
        <ele>217.91546630859</ele>
        <time>2014-12-03T16:01:43Z</time>
      </trkpt>
      <trkpt lat="43.41477" lon="6.0691">
        <ele>217.82206726074</ele>
        <time>2014-12-03T16:01:44Z</time>
      </trkpt>
      <trkpt lat="43.41473" lon="6.06921">
        <ele>217.62860107422</ele>
        <time>2014-12-03T16:01:46Z</time>
      </trkpt>
      <trkpt lat="43.41472" lon="6.06937">
        <ele>217.41802978516</ele>
        <time>2014-12-03T16:01:50Z</time>
      </trkpt>
      <trkpt lat="43.41486" lon="6.06952">
        <ele>217.39801025391</ele>
        <time>2014-12-03T16:01:55Z</time>
      </trkpt>
      <trkpt lat="43.41491" lon="6.06959">
        <ele>217.37339782715</ele>
        <time>2014-12-03T16:01:57Z</time>
      </trkpt>
      <trkpt lat="43.41495" lon="6.06965">
        <ele>217.3591003418</ele>
        <time>2014-12-03T16:01:59Z</time>
      </trkpt>
      <trkpt lat="43.41496" lon="6.06966">
        <ele>217.35737609863</ele>
        <time>2014-12-03T16:02:00Z</time>
      </trkpt>
      <trkpt lat="43.41499" lon="6.06969">
        <ele>217.36195373535</ele>
        <time>2014-12-03T16:02:02Z</time>
      </trkpt>
      <trkpt lat="43.415" lon="6.06969">
        <ele>217.36779785156</ele>
        <time>2014-12-03T16:02:03Z</time>
      </trkpt>
      <trkpt lat="43.41504" lon="6.06972">
        <ele>217.41967773438</ele>
        <time>2014-12-03T16:02:06Z</time>
      </trkpt>
      <trkpt lat="43.41515" lon="6.06975">
        <ele>217.60647583008</ele>
        <time>2014-12-03T16:02:10Z</time>
      </trkpt>
      <trkpt lat="43.41537" lon="6.06973">
        <ele>218.07783508301</ele>
        <time>2014-12-03T16:02:16Z</time>
      </trkpt>
      <trkpt lat="43.41562" lon="6.06969">
        <ele>218.57205200195</ele>
        <time>2014-12-03T16:02:23Z</time>
      </trkpt>
      <trkpt lat="43.41567" lon="6.06967">
        <ele>218.68922424316</ele>
        <time>2014-12-03T16:02:25Z</time>
      </trkpt>
      <trkpt lat="43.41571" lon="6.06967">
        <ele>218.76335144043</ele>
        <time>2014-12-03T16:02:27Z</time>
      </trkpt>
      <trkpt lat="43.41572" lon="6.06969">
        <ele>218.78279113769</ele>
        <time>2014-12-03T16:02:28Z</time>
      </trkpt>
      <trkpt lat="43.41574" lon="6.0698">
        <ele>218.80480957031</ele>
        <time>2014-12-03T16:02:32Z</time>
      </trkpt>
      <trkpt lat="43.41574" lon="6.06984">
        <ele>218.80746459961</ele>
        <time>2014-12-03T16:02:33Z</time>
      </trkpt>
      <trkpt lat="43.41579" lon="6.07018">
        <ele>218.66653442383</ele>
        <time>2014-12-03T16:02:40Z</time>
      </trkpt>
      <trkpt lat="43.4158" lon="6.07033">
        <ele>218.53207397461</ele>
        <time>2014-12-03T16:02:44Z</time>
      </trkpt>
      <trkpt lat="43.41581" lon="6.07035">
        <ele>218.52633666992</ele>
        <time>2014-12-03T16:02:46Z</time>
      </trkpt>
      <trkpt lat="43.41581" lon="6.07036">
        <ele>218.50517272949</ele>
        <time>2014-12-03T16:02:53Z</time>
      </trkpt>
      <trkpt lat="43.41581" lon="6.07036">
        <ele>218.50689697266</ele>
        <time>2014-12-03T16:03:03Z</time>
      </trkpt>
      <trkpt lat="43.41581" lon="6.07037">
        <ele>218.5046081543</ele>
        <time>2014-12-03T16:03:19Z</time>
      </trkpt>
      <trkpt lat="43.41581" lon="6.07036">
        <ele>218.50573730469</ele>
        <time>2014-12-03T16:03:43Z</time>
      </trkpt>
      <trkpt lat="43.41581" lon="6.07036">
        <ele>218.50689697266</ele>
        <time>2014-12-03T16:03:56Z</time>
      </trkpt>
      <trkpt lat="43.41581" lon="6.07036">
        <ele>218.50573730469</ele>
        <time>2014-12-03T16:04:01Z</time>
      </trkpt>
    </trkseg>
  </trk>
</gpx>